<?xml version="1.0" encoding="UTF-8" standalone="no" ?>
<gpx xmlns="http://www.topografix.com/GPX/1/1" xmlns:xsi="http://www.w3.org/2001/XMLSchema-instance" xsi:schemaLocation="http://www.topografix.com/GPX/1/1 http://www.topografix.com/GPX/1/1/gpx.xsd" version="1.1" creator="VisuGPX - https://www.visugpx.com">
  <metadata>
    <name>Lac Fourchu - Lac Canard</name>
    <desc><![CDATA[Circuit au départ des chalets du Poursolet]]></desc>
  </metadata>
  <trk>
    <name><![CDATA[ACTIVE LOG093948]]></name>
    <trkseg>
      <trkpt lat="45.05302" lon="5.89941">
        <ele>1662.81</ele>
        <time>2016-08-14T09:39:47Z</time>
      </trkpt>
      <trkpt lat="45.05299" lon="5.89946">
        <ele>1661.363</ele>
        <time>2016-08-14T09:39:57Z</time>
      </trkpt>
      <trkpt lat="45.05298" lon="5.89949">
        <ele>1662.652</ele>
        <time>2016-08-14T09:39:59Z</time>
      </trkpt>
      <trkpt lat="45.05295" lon="5.89961">
        <ele>1663.094</ele>
        <time>2016-08-14T09:40:06Z</time>
      </trkpt>
      <trkpt lat="45.05295" lon="5.89967">
        <ele>1663.302</ele>
        <time>2016-08-14T09:40:09Z</time>
      </trkpt>
      <trkpt lat="45.05279" lon="5.89989">
        <ele>1661.516</ele>
        <time>2016-08-14T09:40:28Z</time>
      </trkpt>
      <trkpt lat="45.05272" lon="5.89997">
        <ele>1660.224</ele>
        <time>2016-08-14T09:40:35Z</time>
      </trkpt>
      <trkpt lat="45.05269" lon="5.90001">
        <ele>1660.428</ele>
        <time>2016-08-14T09:40:39Z</time>
      </trkpt>
      <trkpt lat="45.05253" lon="5.90015">
        <ele>1657.761</ele>
        <time>2016-08-14T09:40:56Z</time>
      </trkpt>
      <trkpt lat="45.05252" lon="5.90018">
        <ele>1657.25</ele>
        <time>2016-08-14T09:41:00Z</time>
      </trkpt>
      <trkpt lat="45.05247" lon="5.90014">
        <ele>1657.218</ele>
        <time>2016-08-14T09:41:05Z</time>
      </trkpt>
      <trkpt lat="45.05243" lon="5.90015">
        <ele>1656.641</ele>
        <time>2016-08-14T09:41:08Z</time>
      </trkpt>
      <trkpt lat="45.05231" lon="5.90014">
        <ele>1655.627</ele>
        <time>2016-08-14T09:41:20Z</time>
      </trkpt>
      <trkpt lat="45.05228" lon="5.90018">
        <ele>1655.997</ele>
        <time>2016-08-14T09:41:38Z</time>
      </trkpt>
      <trkpt lat="45.05224" lon="5.90024">
        <ele>1655.709</ele>
        <time>2016-08-14T09:41:56Z</time>
      </trkpt>
      <trkpt lat="45.05226" lon="5.90028">
        <ele>1655.697</ele>
        <time>2016-08-14T09:42:01Z</time>
      </trkpt>
      <trkpt lat="45.05228" lon="5.90032">
        <ele>1656.244</ele>
        <time>2016-08-14T09:42:04Z</time>
      </trkpt>
      <trkpt lat="45.05224" lon="5.90052">
        <ele>1656.408</ele>
        <time>2016-08-14T09:42:15Z</time>
      </trkpt>
      <trkpt lat="45.05223" lon="5.90057">
        <ele>1656.761</ele>
        <time>2016-08-14T09:42:26Z</time>
      </trkpt>
      <trkpt lat="45.05219" lon="5.90058">
        <ele>1656.196</ele>
        <time>2016-08-14T09:42:35Z</time>
      </trkpt>
      <trkpt lat="45.05209" lon="5.90067">
        <ele>1655.262</ele>
        <time>2016-08-14T09:42:50Z</time>
      </trkpt>
      <trkpt lat="45.05196" lon="5.90086">
        <ele>1655.974</ele>
        <time>2016-08-14T09:43:06Z</time>
      </trkpt>
      <trkpt lat="45.05188" lon="5.90096">
        <ele>1657.304</ele>
        <time>2016-08-14T09:43:17Z</time>
      </trkpt>
      <trkpt lat="45.05183" lon="5.90101">
        <ele>1658.717</ele>
        <time>2016-08-14T09:43:25Z</time>
      </trkpt>
      <trkpt lat="45.05183" lon="5.90108">
        <ele>1658.74</ele>
        <time>2016-08-14T09:43:32Z</time>
      </trkpt>
      <trkpt lat="45.05181" lon="5.90121">
        <ele>1659.469</ele>
        <time>2016-08-14T09:43:42Z</time>
      </trkpt>
      <trkpt lat="45.05184" lon="5.90128">
        <ele>1660.883</ele>
        <time>2016-08-14T09:43:48Z</time>
      </trkpt>
      <trkpt lat="45.05192" lon="5.90147">
        <ele>1663.467</ele>
        <time>2016-08-14T09:44:05Z</time>
      </trkpt>
      <trkpt lat="45.05188" lon="5.90157">
        <ele>1665.489</ele>
        <time>2016-08-14T09:44:18Z</time>
      </trkpt>
      <trkpt lat="45.05181" lon="5.90176">
        <ele>1668.482</ele>
        <time>2016-08-14T09:44:38Z</time>
      </trkpt>
      <trkpt lat="45.05179" lon="5.90185">
        <ele>1669.391</ele>
        <time>2016-08-14T09:44:45Z</time>
      </trkpt>
      <trkpt lat="45.05168" lon="5.90189">
        <ele>1670.823</ele>
        <time>2016-08-14T09:44:59Z</time>
      </trkpt>
      <trkpt lat="45.0516" lon="5.90194">
        <ele>1670.68</ele>
        <time>2016-08-14T09:45:07Z</time>
      </trkpt>
      <trkpt lat="45.05159" lon="5.90198">
        <ele>1670.872</ele>
        <time>2016-08-14T09:45:11Z</time>
      </trkpt>
      <trkpt lat="45.05155" lon="5.90224">
        <ele>1671.164</ele>
        <time>2016-08-14T09:45:31Z</time>
      </trkpt>
      <trkpt lat="45.05154" lon="5.90243">
        <ele>1672.126</ele>
        <time>2016-08-14T09:45:48Z</time>
      </trkpt>
      <trkpt lat="45.05155" lon="5.90261">
        <ele>1673.293</ele>
        <time>2016-08-14T09:46:03Z</time>
      </trkpt>
      <trkpt lat="45.05157" lon="5.90269">
        <ele>1673.975</ele>
        <time>2016-08-14T09:46:08Z</time>
      </trkpt>
      <trkpt lat="45.05163" lon="5.90289">
        <ele>1674.581</ele>
        <time>2016-08-14T09:46:25Z</time>
      </trkpt>
      <trkpt lat="45.05167" lon="5.90304">
        <ele>1674.272</ele>
        <time>2016-08-14T09:46:41Z</time>
      </trkpt>
      <trkpt lat="45.0517" lon="5.90322">
        <ele>1674.819</ele>
        <time>2016-08-14T09:46:57Z</time>
      </trkpt>
      <trkpt lat="45.05172" lon="5.90335">
        <ele>1675.417</ele>
        <time>2016-08-14T09:47:08Z</time>
      </trkpt>
      <trkpt lat="45.05171" lon="5.90345">
        <ele>1675.194</ele>
        <time>2016-08-14T09:47:15Z</time>
      </trkpt>
      <trkpt lat="45.05169" lon="5.90372">
        <ele>1675.788</ele>
        <time>2016-08-14T09:47:33Z</time>
      </trkpt>
      <trkpt lat="45.05167" lon="5.90383">
        <ele>1676.333</ele>
        <time>2016-08-14T09:47:45Z</time>
      </trkpt>
      <trkpt lat="45.05162" lon="5.90403">
        <ele>1677.355</ele>
        <time>2016-08-14T09:47:59Z</time>
      </trkpt>
      <trkpt lat="45.05156" lon="5.90426">
        <ele>1678.944</ele>
        <time>2016-08-14T09:48:16Z</time>
      </trkpt>
      <trkpt lat="45.05154" lon="5.90438">
        <ele>1679.306</ele>
        <time>2016-08-14T09:48:25Z</time>
      </trkpt>
      <trkpt lat="45.05149" lon="5.90453">
        <ele>1679.723</ele>
        <time>2016-08-14T09:48:37Z</time>
      </trkpt>
      <trkpt lat="45.05145" lon="5.9048">
        <ele>1681.874</ele>
        <time>2016-08-14T09:48:59Z</time>
      </trkpt>
      <trkpt lat="45.05144" lon="5.90507">
        <ele>1684.497</ele>
        <time>2016-08-14T09:49:20Z</time>
      </trkpt>
      <trkpt lat="45.0514" lon="5.90532">
        <ele>1685.812</ele>
        <time>2016-08-14T09:49:40Z</time>
      </trkpt>
      <trkpt lat="45.05136" lon="5.90553">
        <ele>1687.406</ele>
        <time>2016-08-14T09:49:58Z</time>
      </trkpt>
      <trkpt lat="45.05131" lon="5.90572">
        <ele>1688.879</ele>
        <time>2016-08-14T09:50:15Z</time>
      </trkpt>
      <trkpt lat="45.05127" lon="5.90595">
        <ele>1691.004</ele>
        <time>2016-08-14T09:50:35Z</time>
      </trkpt>
      <trkpt lat="45.05126" lon="5.90606">
        <ele>1691.505</ele>
        <time>2016-08-14T09:50:43Z</time>
      </trkpt>
      <trkpt lat="45.05125" lon="5.9063">
        <ele>1694.238</ele>
        <time>2016-08-14T09:51:01Z</time>
      </trkpt>
      <trkpt lat="45.05125" lon="5.90655">
        <ele>1695.882</ele>
        <time>2016-08-14T09:51:19Z</time>
      </trkpt>
      <trkpt lat="45.05129" lon="5.9068">
        <ele>1697.302</ele>
        <time>2016-08-14T09:51:39Z</time>
      </trkpt>
      <trkpt lat="45.05134" lon="5.90701">
        <ele>1699.286</ele>
        <time>2016-08-14T09:51:57Z</time>
      </trkpt>
      <trkpt lat="45.0513" lon="5.90714">
        <ele>1700.792</ele>
        <time>2016-08-14T09:52:12Z</time>
      </trkpt>
      <trkpt lat="45.05125" lon="5.90733">
        <ele>1702.355</ele>
        <time>2016-08-14T09:52:29Z</time>
      </trkpt>
      <trkpt lat="45.05123" lon="5.90741">
        <ele>1703.206</ele>
        <time>2016-08-14T09:52:36Z</time>
      </trkpt>
      <trkpt lat="45.05122" lon="5.9076">
        <ele>1705.044</ele>
        <time>2016-08-14T09:52:53Z</time>
      </trkpt>
      <trkpt lat="45.05115" lon="5.90775">
        <ele>1706.641</ele>
        <time>2016-08-14T09:53:10Z</time>
      </trkpt>
      <trkpt lat="45.05114" lon="5.90792">
        <ele>1708.622</ele>
        <time>2016-08-14T09:53:25Z</time>
      </trkpt>
      <trkpt lat="45.05106" lon="5.908">
        <ele>1709.337</ele>
        <time>2016-08-14T09:53:37Z</time>
      </trkpt>
      <trkpt lat="45.05101" lon="5.9082">
        <ele>1712.824</ele>
        <time>2016-08-14T09:54:01Z</time>
      </trkpt>
      <trkpt lat="45.05099" lon="5.90843">
        <ele>1714.661</ele>
        <time>2016-08-14T09:54:18Z</time>
      </trkpt>
      <trkpt lat="45.051" lon="5.90863">
        <ele>1716.868</ele>
        <time>2016-08-14T09:54:35Z</time>
      </trkpt>
      <trkpt lat="45.05096" lon="5.90865">
        <ele>1717.509</ele>
        <time>2016-08-14T09:54:52Z</time>
      </trkpt>
      <trkpt lat="45.05097" lon="5.90878">
        <ele>1718.736</ele>
        <time>2016-08-14T09:55:06Z</time>
      </trkpt>
      <trkpt lat="45.05096" lon="5.90891">
        <ele>1720.218</ele>
        <time>2016-08-14T09:55:19Z</time>
      </trkpt>
      <trkpt lat="45.05092" lon="5.90908">
        <ele>1721.99</ele>
        <time>2016-08-14T09:55:33Z</time>
      </trkpt>
      <trkpt lat="45.05088" lon="5.90921">
        <ele>1723.265</ele>
        <time>2016-08-14T09:55:47Z</time>
      </trkpt>
      <trkpt lat="45.05078" lon="5.90936">
        <ele>1725.958</ele>
        <time>2016-08-14T09:56:04Z</time>
      </trkpt>
      <trkpt lat="45.05074" lon="5.90948">
        <ele>1727.349</ele>
        <time>2016-08-14T09:56:26Z</time>
      </trkpt>
      <trkpt lat="45.0507" lon="5.90959">
        <ele>1728.798</ele>
        <time>2016-08-14T09:56:37Z</time>
      </trkpt>
      <trkpt lat="45.05063" lon="5.9098">
        <ele>1730.994</ele>
        <time>2016-08-14T09:56:58Z</time>
      </trkpt>
      <trkpt lat="45.05062" lon="5.90993">
        <ele>1731.968</ele>
        <time>2016-08-14T09:57:10Z</time>
      </trkpt>
      <trkpt lat="45.05061" lon="5.91012">
        <ele>1731.866</ele>
        <time>2016-08-14T09:57:25Z</time>
      </trkpt>
      <trkpt lat="45.0506" lon="5.91025">
        <ele>1732.681</ele>
        <time>2016-08-14T09:57:36Z</time>
      </trkpt>
      <trkpt lat="45.05061" lon="5.91038">
        <ele>1733.306</ele>
        <time>2016-08-14T09:57:49Z</time>
      </trkpt>
      <trkpt lat="45.05057" lon="5.91045">
        <ele>1734.254</ele>
        <time>2016-08-14T09:58:10Z</time>
      </trkpt>
      <trkpt lat="45.05059" lon="5.9105">
        <ele>1733.915</ele>
        <time>2016-08-14T09:58:18Z</time>
      </trkpt>
      <trkpt lat="45.05061" lon="5.9106">
        <ele>1733.609</ele>
        <time>2016-08-14T09:58:25Z</time>
      </trkpt>
      <trkpt lat="45.05055" lon="5.91076">
        <ele>1734.263</ele>
        <time>2016-08-14T09:58:40Z</time>
      </trkpt>
      <trkpt lat="45.05048" lon="5.91091">
        <ele>1735.467</ele>
        <time>2016-08-14T09:59:00Z</time>
      </trkpt>
      <trkpt lat="45.05042" lon="5.91105">
        <ele>1737.99</ele>
        <time>2016-08-14T09:59:19Z</time>
      </trkpt>
      <trkpt lat="45.05035" lon="5.91107">
        <ele>1739.842</ele>
        <time>2016-08-14T09:59:32Z</time>
      </trkpt>
      <trkpt lat="45.05035" lon="5.91123">
        <ele>1741.965</ele>
        <time>2016-08-14T09:59:48Z</time>
      </trkpt>
      <trkpt lat="45.0503" lon="5.91134">
        <ele>1744.624</ele>
        <time>2016-08-14T10:00:05Z</time>
      </trkpt>
      <trkpt lat="45.0503" lon="5.91137">
        <ele>1744.657</ele>
        <time>2016-08-14T10:00:38Z</time>
      </trkpt>
      <trkpt lat="45.05031" lon="5.91139">
        <ele>1744.961</ele>
        <time>2016-08-14T10:00:57Z</time>
      </trkpt>
      <trkpt lat="45.05035" lon="5.91143">
        <ele>1742.865</ele>
        <time>2016-08-14T10:02:54Z</time>
      </trkpt>
      <trkpt lat="45.05038" lon="5.91152">
        <ele>1743.269</ele>
        <time>2016-08-14T10:03:11Z</time>
      </trkpt>
      <trkpt lat="45.05042" lon="5.91171">
        <ele>1745.025</ele>
        <time>2016-08-14T10:03:29Z</time>
      </trkpt>
      <trkpt lat="45.05047" lon="5.91181">
        <ele>1747.698</ele>
        <time>2016-08-14T10:03:45Z</time>
      </trkpt>
      <trkpt lat="45.05047" lon="5.9119">
        <ele>1749.711</ele>
        <time>2016-08-14T10:03:58Z</time>
      </trkpt>
      <trkpt lat="45.0505" lon="5.91196">
        <ele>1752.151</ele>
        <time>2016-08-14T10:04:15Z</time>
      </trkpt>
      <trkpt lat="45.05051" lon="5.91209">
        <ele>1753.765</ele>
        <time>2016-08-14T10:04:36Z</time>
      </trkpt>
      <trkpt lat="45.05052" lon="5.91224">
        <ele>1757.004</ele>
        <time>2016-08-14T10:04:54Z</time>
      </trkpt>
      <trkpt lat="45.05049" lon="5.91239">
        <ele>1759.345</ele>
        <time>2016-08-14T10:05:12Z</time>
      </trkpt>
      <trkpt lat="45.05054" lon="5.91252">
        <ele>1761.927</ele>
        <time>2016-08-14T10:05:31Z</time>
      </trkpt>
      <trkpt lat="45.05056" lon="5.91262">
        <ele>1763.764</ele>
        <time>2016-08-14T10:06:52Z</time>
      </trkpt>
      <trkpt lat="45.05058" lon="5.91277">
        <ele>1766.185</ele>
        <time>2016-08-14T10:07:11Z</time>
      </trkpt>
      <trkpt lat="45.0506" lon="5.91288">
        <ele>1768.711</ele>
        <time>2016-08-14T10:07:26Z</time>
      </trkpt>
      <trkpt lat="45.0506" lon="5.91298">
        <ele>1771.997</ele>
        <time>2016-08-14T10:07:41Z</time>
      </trkpt>
      <trkpt lat="45.05059" lon="5.91292">
        <ele>1771.941</ele>
        <time>2016-08-14T10:08:33Z</time>
      </trkpt>
      <trkpt lat="45.0506" lon="5.91296">
        <ele>1771.524</ele>
        <time>2016-08-14T10:12:33Z</time>
      </trkpt>
      <trkpt lat="45.05063" lon="5.91308">
        <ele>1773.033</ele>
        <time>2016-08-14T10:12:54Z</time>
      </trkpt>
      <trkpt lat="45.05066" lon="5.9132">
        <ele>1774.97</ele>
        <time>2016-08-14T10:13:07Z</time>
      </trkpt>
      <trkpt lat="45.05067" lon="5.91332">
        <ele>1778.083</ele>
        <time>2016-08-14T10:13:23Z</time>
      </trkpt>
      <trkpt lat="45.05068" lon="5.91345">
        <ele>1781.696</ele>
        <time>2016-08-14T10:13:40Z</time>
      </trkpt>
      <trkpt lat="45.05079" lon="5.91353">
        <ele>1782.584</ele>
        <time>2016-08-14T10:13:57Z</time>
      </trkpt>
      <trkpt lat="45.05084" lon="5.91347">
        <ele>1780.473</ele>
        <time>2016-08-14T10:14:13Z</time>
      </trkpt>
      <trkpt lat="45.05087" lon="5.91352">
        <ele>1780.18</ele>
        <time>2016-08-14T10:14:43Z</time>
      </trkpt>
      <trkpt lat="45.05088" lon="5.91355">
        <ele>1779.071</ele>
        <time>2016-08-14T10:15:25Z</time>
      </trkpt>
      <trkpt lat="45.05101" lon="5.9136">
        <ele>1779.137</ele>
        <time>2016-08-14T10:15:41Z</time>
      </trkpt>
      <trkpt lat="45.05111" lon="5.91373">
        <ele>1781.333</ele>
        <time>2016-08-14T10:15:57Z</time>
      </trkpt>
      <trkpt lat="45.05116" lon="5.91373">
        <ele>1782.857</ele>
        <time>2016-08-14T10:16:16Z</time>
      </trkpt>
      <trkpt lat="45.05124" lon="5.91382">
        <ele>1783.665</ele>
        <time>2016-08-14T10:16:33Z</time>
      </trkpt>
      <trkpt lat="45.05133" lon="5.91396">
        <ele>1785.753</ele>
        <time>2016-08-14T10:16:53Z</time>
      </trkpt>
      <trkpt lat="45.05139" lon="5.91405">
        <ele>1788.356</ele>
        <time>2016-08-14T10:17:11Z</time>
      </trkpt>
      <trkpt lat="45.05146" lon="5.91417">
        <ele>1790.843</ele>
        <time>2016-08-14T10:17:31Z</time>
      </trkpt>
      <trkpt lat="45.05147" lon="5.91422">
        <ele>1792.059</ele>
        <time>2016-08-14T10:17:48Z</time>
      </trkpt>
      <trkpt lat="45.05144" lon="5.91426">
        <ele>1791.258</ele>
        <time>2016-08-14T10:18:46Z</time>
      </trkpt>
      <trkpt lat="45.05149" lon="5.91436">
        <ele>1791.089</ele>
        <time>2016-08-14T10:19:27Z</time>
      </trkpt>
      <trkpt lat="45.05147" lon="5.91448">
        <ele>1790.695</ele>
        <time>2016-08-14T10:19:38Z</time>
      </trkpt>
      <trkpt lat="45.0515" lon="5.91463">
        <ele>1791.386</ele>
        <time>2016-08-14T10:19:52Z</time>
      </trkpt>
      <trkpt lat="45.05149" lon="5.91478">
        <ele>1793.569</ele>
        <time>2016-08-14T10:20:07Z</time>
      </trkpt>
      <trkpt lat="45.0515" lon="5.91492">
        <ele>1795.682</ele>
        <time>2016-08-14T10:20:23Z</time>
      </trkpt>
      <trkpt lat="45.05149" lon="5.915">
        <ele>1797.076</ele>
        <time>2016-08-14T10:20:33Z</time>
      </trkpt>
      <trkpt lat="45.0515" lon="5.91507">
        <ele>1797.836</ele>
        <time>2016-08-14T10:20:39Z</time>
      </trkpt>
      <trkpt lat="45.05152" lon="5.91512">
        <ele>1798.285</ele>
        <time>2016-08-14T10:20:56Z</time>
      </trkpt>
      <trkpt lat="45.05155" lon="5.91509">
        <ele>1797.472</ele>
        <time>2016-08-14T10:22:05Z</time>
      </trkpt>
      <trkpt lat="45.05161" lon="5.91521">
        <ele>1799.113</ele>
        <time>2016-08-14T10:22:22Z</time>
      </trkpt>
      <trkpt lat="45.05166" lon="5.91535">
        <ele>1801.43</ele>
        <time>2016-08-14T10:22:48Z</time>
      </trkpt>
      <trkpt lat="45.05168" lon="5.91549">
        <ele>1805.451</ele>
        <time>2016-08-14T10:23:07Z</time>
      </trkpt>
      <trkpt lat="45.0517" lon="5.91562">
        <ele>1808.938</ele>
        <time>2016-08-14T10:23:25Z</time>
      </trkpt>
      <trkpt lat="45.05173" lon="5.91574">
        <ele>1812.217</ele>
        <time>2016-08-14T10:23:44Z</time>
      </trkpt>
      <trkpt lat="45.05174" lon="5.91587">
        <ele>1815.274</ele>
        <time>2016-08-14T10:24:00Z</time>
      </trkpt>
      <trkpt lat="45.05178" lon="5.91601">
        <ele>1818.435</ele>
        <time>2016-08-14T10:24:19Z</time>
      </trkpt>
      <trkpt lat="45.05178" lon="5.91608">
        <ele>1819.749</ele>
        <time>2016-08-14T10:24:47Z</time>
      </trkpt>
      <trkpt lat="45.05177" lon="5.91621">
        <ele>1822.642</ele>
        <time>2016-08-14T10:25:23Z</time>
      </trkpt>
      <trkpt lat="45.0518" lon="5.91628">
        <ele>1825.268</ele>
        <time>2016-08-14T10:28:38Z</time>
      </trkpt>
      <trkpt lat="45.05182" lon="5.9164">
        <ele>1827.147</ele>
        <time>2016-08-14T10:29:19Z</time>
      </trkpt>
      <trkpt lat="45.05185" lon="5.91656">
        <ele>1830.875</ele>
        <time>2016-08-14T10:29:39Z</time>
      </trkpt>
      <trkpt lat="45.05183" lon="5.91674">
        <ele>1834.091</ele>
        <time>2016-08-14T10:30:02Z</time>
      </trkpt>
      <trkpt lat="45.05181" lon="5.91689">
        <ele>1836.845</ele>
        <time>2016-08-14T10:30:19Z</time>
      </trkpt>
      <trkpt lat="45.05182" lon="5.91702">
        <ele>1839.877</ele>
        <time>2016-08-14T10:30:38Z</time>
      </trkpt>
      <trkpt lat="45.05178" lon="5.9171">
        <ele>1841.774</ele>
        <time>2016-08-14T10:31:01Z</time>
      </trkpt>
      <trkpt lat="45.05182" lon="5.91727">
        <ele>1844.791</ele>
        <time>2016-08-14T10:31:22Z</time>
      </trkpt>
      <trkpt lat="45.05189" lon="5.91732">
        <ele>1847.596</ele>
        <time>2016-08-14T10:31:42Z</time>
      </trkpt>
      <trkpt lat="45.05192" lon="5.91735">
        <ele>1850.681</ele>
        <time>2016-08-14T10:32:57Z</time>
      </trkpt>
      <trkpt lat="45.05199" lon="5.91748">
        <ele>1853.739</ele>
        <time>2016-08-14T10:33:14Z</time>
      </trkpt>
      <trkpt lat="45.05192" lon="5.91753">
        <ele>1855.882</ele>
        <time>2016-08-14T10:33:30Z</time>
      </trkpt>
      <trkpt lat="45.05192" lon="5.91764">
        <ele>1860.363</ele>
        <time>2016-08-14T10:35:57Z</time>
      </trkpt>
      <trkpt lat="45.05197" lon="5.91771">
        <ele>1863.518</ele>
        <time>2016-08-14T10:36:12Z</time>
      </trkpt>
      <trkpt lat="45.05199" lon="5.91773">
        <ele>1864.244</ele>
        <time>2016-08-14T10:36:39Z</time>
      </trkpt>
      <trkpt lat="45.05198" lon="5.91784">
        <ele>1867.428</ele>
        <time>2016-08-14T10:36:56Z</time>
      </trkpt>
      <trkpt lat="45.05196" lon="5.91792">
        <ele>1869.411</ele>
        <time>2016-08-14T10:37:13Z</time>
      </trkpt>
      <trkpt lat="45.05193" lon="5.91797">
        <ele>1871.913</ele>
        <time>2016-08-14T10:37:28Z</time>
      </trkpt>
      <trkpt lat="45.05193" lon="5.91804">
        <ele>1873.669</ele>
        <time>2016-08-14T10:38:00Z</time>
      </trkpt>
      <trkpt lat="45.05193" lon="5.9181">
        <ele>1875.281</ele>
        <time>2016-08-14T10:38:25Z</time>
      </trkpt>
      <trkpt lat="45.05193" lon="5.9182">
        <ele>1877.663</ele>
        <time>2016-08-14T10:38:39Z</time>
      </trkpt>
      <trkpt lat="45.05195" lon="5.91835">
        <ele>1881.174</ele>
        <time>2016-08-14T10:40:28Z</time>
      </trkpt>
      <trkpt lat="45.05193" lon="5.91843">
        <ele>1884.268</ele>
        <time>2016-08-14T10:40:43Z</time>
      </trkpt>
      <trkpt lat="45.05194" lon="5.91856">
        <ele>1886.837</ele>
        <time>2016-08-14T10:41:02Z</time>
      </trkpt>
      <trkpt lat="45.05195" lon="5.9186">
        <ele>1886.674</ele>
        <time>2016-08-14T10:41:26Z</time>
      </trkpt>
      <trkpt lat="45.05199" lon="5.91876">
        <ele>1890.458</ele>
        <time>2016-08-14T10:41:46Z</time>
      </trkpt>
      <trkpt lat="45.052" lon="5.91885">
        <ele>1891.286</ele>
        <time>2016-08-14T10:42:07Z</time>
      </trkpt>
      <trkpt lat="45.05199" lon="5.91896">
        <ele>1894.376</ele>
        <time>2016-08-14T10:42:22Z</time>
      </trkpt>
      <trkpt lat="45.052" lon="5.91912">
        <ele>1896.074</ele>
        <time>2016-08-14T10:42:42Z</time>
      </trkpt>
      <trkpt lat="45.05204" lon="5.91917">
        <ele>1899.785</ele>
        <time>2016-08-14T10:42:55Z</time>
      </trkpt>
      <trkpt lat="45.05206" lon="5.91918">
        <ele>1900.153</ele>
        <time>2016-08-14T10:43:32Z</time>
      </trkpt>
      <trkpt lat="45.05207" lon="5.91926">
        <ele>1903.244</ele>
        <time>2016-08-14T10:43:50Z</time>
      </trkpt>
      <trkpt lat="45.05211" lon="5.91932">
        <ele>1905.826</ele>
        <time>2016-08-14T10:44:05Z</time>
      </trkpt>
      <trkpt lat="45.05214" lon="5.91935">
        <ele>1907.793</ele>
        <time>2016-08-14T10:44:29Z</time>
      </trkpt>
      <trkpt lat="45.05216" lon="5.91944">
        <ele>1910.401</ele>
        <time>2016-08-14T10:46:25Z</time>
      </trkpt>
      <trkpt lat="45.05223" lon="5.91957">
        <ele>1913.225</ele>
        <time>2016-08-14T10:46:39Z</time>
      </trkpt>
      <trkpt lat="45.05225" lon="5.91962">
        <ele>1917.325</ele>
        <time>2016-08-14T10:47:08Z</time>
      </trkpt>
      <trkpt lat="45.05229" lon="5.91963">
        <ele>1918.834</ele>
        <time>2016-08-14T10:47:30Z</time>
      </trkpt>
      <trkpt lat="45.05233" lon="5.91971">
        <ele>1920.886</ele>
        <time>2016-08-14T10:47:43Z</time>
      </trkpt>
      <trkpt lat="45.05234" lon="5.91977">
        <ele>1924.036</ele>
        <time>2016-08-14T10:47:56Z</time>
      </trkpt>
      <trkpt lat="45.05238" lon="5.91977">
        <ele>1925.025</ele>
        <time>2016-08-14T10:49:51Z</time>
      </trkpt>
      <trkpt lat="45.05239" lon="5.91983">
        <ele>1928.183</ele>
        <time>2016-08-14T10:50:06Z</time>
      </trkpt>
      <trkpt lat="45.05242" lon="5.91994">
        <ele>1930.429</ele>
        <time>2016-08-14T10:50:19Z</time>
      </trkpt>
      <trkpt lat="45.05243" lon="5.91998">
        <ele>1932.154</ele>
        <time>2016-08-14T10:50:43Z</time>
      </trkpt>
      <trkpt lat="45.05247" lon="5.9201">
        <ele>1934.766</ele>
        <time>2016-08-14T10:51:02Z</time>
      </trkpt>
      <trkpt lat="45.05246" lon="5.92022">
        <ele>1938.023</ele>
        <time>2016-08-14T10:51:17Z</time>
      </trkpt>
      <trkpt lat="45.05248" lon="5.92032">
        <ele>1940.495</ele>
        <time>2016-08-14T10:51:37Z</time>
      </trkpt>
      <trkpt lat="45.05249" lon="5.92037">
        <ele>1942.165</ele>
        <time>2016-08-14T10:51:42Z</time>
      </trkpt>
      <trkpt lat="45.05251" lon="5.92043">
        <ele>1944.986</ele>
        <time>2016-08-14T10:53:16Z</time>
      </trkpt>
      <trkpt lat="45.05262" lon="5.92053">
        <ele>1948.175</ele>
        <time>2016-08-14T10:54:39Z</time>
      </trkpt>
      <trkpt lat="45.05269" lon="5.92066">
        <ele>1951.258</ele>
        <time>2016-08-14T10:54:57Z</time>
      </trkpt>
      <trkpt lat="45.05272" lon="5.92069">
        <ele>1952.427</ele>
        <time>2016-08-14T10:55:04Z</time>
      </trkpt>
      <trkpt lat="45.05276" lon="5.92072">
        <ele>1954.093</ele>
        <time>2016-08-14T10:55:26Z</time>
      </trkpt>
      <trkpt lat="45.05281" lon="5.92076">
        <ele>1954.838</ele>
        <time>2016-08-14T10:55:38Z</time>
      </trkpt>
      <trkpt lat="45.05286" lon="5.92077">
        <ele>1955.397</ele>
        <time>2016-08-14T10:55:58Z</time>
      </trkpt>
      <trkpt lat="45.05295" lon="5.92084">
        <ele>1956.837</ele>
        <time>2016-08-14T10:56:14Z</time>
      </trkpt>
      <trkpt lat="45.05302" lon="5.92095">
        <ele>1960.106</ele>
        <time>2016-08-14T10:56:32Z</time>
      </trkpt>
      <trkpt lat="45.05309" lon="5.92105">
        <ele>1963.069</ele>
        <time>2016-08-14T10:56:50Z</time>
      </trkpt>
      <trkpt lat="45.05313" lon="5.92116">
        <ele>1966.738</ele>
        <time>2016-08-14T10:58:17Z</time>
      </trkpt>
      <trkpt lat="45.05321" lon="5.92127">
        <ele>1969.641</ele>
        <time>2016-08-14T10:58:36Z</time>
      </trkpt>
      <trkpt lat="45.05325" lon="5.92134">
        <ele>1971.973</ele>
        <time>2016-08-14T10:58:55Z</time>
      </trkpt>
      <trkpt lat="45.05327" lon="5.92141">
        <ele>1973.206</ele>
        <time>2016-08-14T10:59:22Z</time>
      </trkpt>
      <trkpt lat="45.05336" lon="5.92146">
        <ele>1976.382</ele>
        <time>2016-08-14T10:59:35Z</time>
      </trkpt>
      <trkpt lat="45.0534" lon="5.92156">
        <ele>1978.382</ele>
        <time>2016-08-14T10:59:48Z</time>
      </trkpt>
      <trkpt lat="45.05345" lon="5.92164">
        <ele>1981.457</ele>
        <time>2016-08-14T11:00:05Z</time>
      </trkpt>
      <trkpt lat="45.05349" lon="5.92172">
        <ele>1984.689</ele>
        <time>2016-08-14T11:00:21Z</time>
      </trkpt>
      <trkpt lat="45.05353" lon="5.92178">
        <ele>1987.129</ele>
        <time>2016-08-14T11:00:41Z</time>
      </trkpt>
      <trkpt lat="45.05356" lon="5.92179">
        <ele>1987.243</ele>
        <time>2016-08-14T11:00:58Z</time>
      </trkpt>
      <trkpt lat="45.05349" lon="5.92182">
        <ele>1989.584</ele>
        <time>2016-08-14T11:02:42Z</time>
      </trkpt>
      <trkpt lat="45.05343" lon="5.9218">
        <ele>1991.149</ele>
        <time>2016-08-14T11:03:00Z</time>
      </trkpt>
      <trkpt lat="45.05335" lon="5.92184">
        <ele>1992.787</ele>
        <time>2016-08-14T11:03:17Z</time>
      </trkpt>
      <trkpt lat="45.05325" lon="5.92188">
        <ele>1996.204</ele>
        <time>2016-08-14T11:03:34Z</time>
      </trkpt>
      <trkpt lat="45.05321" lon="5.92188">
        <ele>1997.984</ele>
        <time>2016-08-14T11:03:55Z</time>
      </trkpt>
      <trkpt lat="45.05315" lon="5.92191">
        <ele>2000.569</ele>
        <time>2016-08-14T11:04:20Z</time>
      </trkpt>
      <trkpt lat="45.05308" lon="5.92191">
        <ele>2002.548</ele>
        <time>2016-08-14T11:04:36Z</time>
      </trkpt>
      <trkpt lat="45.053" lon="5.92191">
        <ele>2005.749</ele>
        <time>2016-08-14T11:04:55Z</time>
      </trkpt>
      <trkpt lat="45.05296" lon="5.92191">
        <ele>2007.343</ele>
        <time>2016-08-14T11:05:18Z</time>
      </trkpt>
      <trkpt lat="45.05294" lon="5.92191">
        <ele>2008.962</ele>
        <time>2016-08-14T11:06:02Z</time>
      </trkpt>
      <trkpt lat="45.05287" lon="5.92193">
        <ele>2010.654</ele>
        <time>2016-08-14T11:07:07Z</time>
      </trkpt>
      <trkpt lat="45.05279" lon="5.92193">
        <ele>2014.099</ele>
        <time>2016-08-14T11:07:23Z</time>
      </trkpt>
      <trkpt lat="45.05266" lon="5.92198">
        <ele>2016.712</ele>
        <time>2016-08-14T11:07:45Z</time>
      </trkpt>
      <trkpt lat="45.05255" lon="5.92203">
        <ele>2019.69</ele>
        <time>2016-08-14T11:08:04Z</time>
      </trkpt>
      <trkpt lat="45.0525" lon="5.92202">
        <ele>2021.57</ele>
        <time>2016-08-14T11:08:20Z</time>
      </trkpt>
      <trkpt lat="45.05248" lon="5.92201">
        <ele>2023.293</ele>
        <time>2016-08-14T11:08:40Z</time>
      </trkpt>
      <trkpt lat="45.05239" lon="5.92202">
        <ele>2025.696</ele>
        <time>2016-08-14T11:09:23Z</time>
      </trkpt>
      <trkpt lat="45.05229" lon="5.92202">
        <ele>2028.256</ele>
        <time>2016-08-14T11:10:16Z</time>
      </trkpt>
      <trkpt lat="45.0522" lon="5.92208">
        <ele>2030.838</ele>
        <time>2016-08-14T11:10:34Z</time>
      </trkpt>
      <trkpt lat="45.05205" lon="5.92213">
        <ele>2033.861</ele>
        <time>2016-08-14T11:10:54Z</time>
      </trkpt>
      <trkpt lat="45.05197" lon="5.92217">
        <ele>2036.583</ele>
        <time>2016-08-14T11:11:11Z</time>
      </trkpt>
      <trkpt lat="45.05191" lon="5.92222">
        <ele>2039.245</ele>
        <time>2016-08-14T11:11:25Z</time>
      </trkpt>
      <trkpt lat="45.05193" lon="5.92229">
        <ele>2042.498</ele>
        <time>2016-08-14T11:11:38Z</time>
      </trkpt>
      <trkpt lat="45.05199" lon="5.92239">
        <ele>2044.973</ele>
        <time>2016-08-14T11:11:52Z</time>
      </trkpt>
      <trkpt lat="45.05202" lon="5.92243">
        <ele>2045.639</ele>
        <time>2016-08-14T11:12:08Z</time>
      </trkpt>
      <trkpt lat="45.05204" lon="5.92243">
        <ele>2045.991</ele>
        <time>2016-08-14T11:12:25Z</time>
      </trkpt>
      <trkpt lat="45.0522" lon="5.9225">
        <ele>2046.055</ele>
        <time>2016-08-14T11:12:53Z</time>
      </trkpt>
      <trkpt lat="45.05227" lon="5.92258">
        <ele>2047.02</ele>
        <time>2016-08-14T11:13:06Z</time>
      </trkpt>
      <trkpt lat="45.05231" lon="5.92263">
        <ele>2047.815</ele>
        <time>2016-08-14T11:13:16Z</time>
      </trkpt>
      <trkpt lat="45.05231" lon="5.92267">
        <ele>2047.596</ele>
        <time>2016-08-14T11:13:32Z</time>
      </trkpt>
      <trkpt lat="45.05235" lon="5.9227">
        <ele>2047.282</ele>
        <time>2016-08-14T11:14:18Z</time>
      </trkpt>
      <trkpt lat="45.05237" lon="5.92274">
        <ele>2047.708</ele>
        <time>2016-08-14T11:14:24Z</time>
      </trkpt>
      <trkpt lat="45.05239" lon="5.92276">
        <ele>2046.696</ele>
        <time>2016-08-14T11:14:38Z</time>
      </trkpt>
      <trkpt lat="45.05247" lon="5.92283">
        <ele>2047.734</ele>
        <time>2016-08-14T11:14:51Z</time>
      </trkpt>
      <trkpt lat="45.05253" lon="5.92295">
        <ele>2049.321</ele>
        <time>2016-08-14T11:15:06Z</time>
      </trkpt>
      <trkpt lat="45.05256" lon="5.92309">
        <ele>2051.144</ele>
        <time>2016-08-14T11:15:21Z</time>
      </trkpt>
      <trkpt lat="45.05255" lon="5.92315">
        <ele>2052.003</ele>
        <time>2016-08-14T11:15:35Z</time>
      </trkpt>
      <trkpt lat="45.05253" lon="5.92333">
        <ele>2053.888</ele>
        <time>2016-08-14T11:15:54Z</time>
      </trkpt>
      <trkpt lat="45.0526" lon="5.92372">
        <ele>2053.665</ele>
        <time>2016-08-14T11:16:21Z</time>
      </trkpt>
      <trkpt lat="45.05267" lon="5.92384">
        <ele>2053.013</ele>
        <time>2016-08-14T11:16:40Z</time>
      </trkpt>
      <trkpt lat="45.05272" lon="5.92393">
        <ele>2053.699</ele>
        <time>2016-08-14T11:16:47Z</time>
      </trkpt>
      <trkpt lat="45.05289" lon="5.924">
        <ele>2056.518</ele>
        <time>2016-08-14T11:17:06Z</time>
      </trkpt>
      <trkpt lat="45.05292" lon="5.92402">
        <ele>2056.874</ele>
        <time>2016-08-14T11:17:09Z</time>
      </trkpt>
      <trkpt lat="45.05307" lon="5.92428">
        <ele>2055.746</ele>
        <time>2016-08-14T11:17:34Z</time>
      </trkpt>
      <trkpt lat="45.05318" lon="5.92449">
        <ele>2055.664</ele>
        <time>2016-08-14T11:17:51Z</time>
      </trkpt>
      <trkpt lat="45.05322" lon="5.92451">
        <ele>2055.947</ele>
        <time>2016-08-14T11:17:54Z</time>
      </trkpt>
      <trkpt lat="45.05329" lon="5.92469">
        <ele>2057.185</ele>
        <time>2016-08-14T11:18:14Z</time>
      </trkpt>
      <trkpt lat="45.05332" lon="5.92477">
        <ele>2056.021</ele>
        <time>2016-08-14T11:18:37Z</time>
      </trkpt>
      <trkpt lat="45.05335" lon="5.92481">
        <ele>2056.709</ele>
        <time>2016-08-14T11:19:46Z</time>
      </trkpt>
      <trkpt lat="45.05338" lon="5.92479">
        <ele>2056.84</ele>
        <time>2016-08-14T11:19:59Z</time>
      </trkpt>
      <trkpt lat="45.0534" lon="5.92486">
        <ele>2056.444</ele>
        <time>2016-08-14T11:20:04Z</time>
      </trkpt>
      <trkpt lat="45.0535" lon="5.92505">
        <ele>2054.341</ele>
        <time>2016-08-14T11:20:16Z</time>
      </trkpt>
      <trkpt lat="45.05351" lon="5.9251">
        <ele>2053.067</ele>
        <time>2016-08-14T11:20:19Z</time>
      </trkpt>
      <trkpt lat="45.05358" lon="5.92543">
        <ele>2052.283</ele>
        <time>2016-08-14T11:20:39Z</time>
      </trkpt>
      <trkpt lat="45.05357" lon="5.9255">
        <ele>2052.617</ele>
        <time>2016-08-14T11:20:44Z</time>
      </trkpt>
      <trkpt lat="45.05351" lon="5.92567">
        <ele>2052.821</ele>
        <time>2016-08-14T11:20:56Z</time>
      </trkpt>
      <trkpt lat="45.05348" lon="5.92579">
        <ele>2052.486</ele>
        <time>2016-08-14T11:21:05Z</time>
      </trkpt>
      <trkpt lat="45.05353" lon="5.92611">
        <ele>2052.394</ele>
        <time>2016-08-14T11:21:26Z</time>
      </trkpt>
      <trkpt lat="45.05354" lon="5.92615">
        <ele>2052.763</ele>
        <time>2016-08-14T11:21:55Z</time>
      </trkpt>
      <trkpt lat="45.05349" lon="5.92628">
        <ele>2051.248</ele>
        <time>2016-08-14T11:22:22Z</time>
      </trkpt>
      <trkpt lat="45.05348" lon="5.92637">
        <ele>2051.02</ele>
        <time>2016-08-14T11:22:29Z</time>
      </trkpt>
      <trkpt lat="45.05342" lon="5.92655">
        <ele>2048.744</ele>
        <time>2016-08-14T11:22:41Z</time>
      </trkpt>
      <trkpt lat="45.05345" lon="5.92662">
        <ele>2048.557</ele>
        <time>2016-08-14T11:22:46Z</time>
      </trkpt>
      <trkpt lat="45.05358" lon="5.92668">
        <ele>2048.301</ele>
        <time>2016-08-14T11:23:00Z</time>
      </trkpt>
      <trkpt lat="45.05368" lon="5.92662">
        <ele>2047.356</ele>
        <time>2016-08-14T11:23:13Z</time>
      </trkpt>
      <trkpt lat="45.05371" lon="5.92656">
        <ele>2046.443</ele>
        <time>2016-08-14T11:23:17Z</time>
      </trkpt>
      <trkpt lat="45.05381" lon="5.92666">
        <ele>2047.521</ele>
        <time>2016-08-14T11:23:33Z</time>
      </trkpt>
      <trkpt lat="45.05389" lon="5.92683">
        <ele>2047.935</ele>
        <time>2016-08-14T11:23:47Z</time>
      </trkpt>
      <trkpt lat="45.05391" lon="5.92695">
        <ele>2047.599</ele>
        <time>2016-08-14T11:23:55Z</time>
      </trkpt>
      <trkpt lat="45.05397" lon="5.92703">
        <ele>2047.222</ele>
        <time>2016-08-14T11:24:02Z</time>
      </trkpt>
      <trkpt lat="45.05403" lon="5.92716">
        <ele>2046.38</ele>
        <time>2016-08-14T11:24:54Z</time>
      </trkpt>
      <trkpt lat="45.05405" lon="5.92718">
        <ele>2045.33</ele>
        <time>2016-08-14T11:27:35Z</time>
      </trkpt>
      <trkpt lat="45.05407" lon="5.92716">
        <ele>2049.252</ele>
        <time>2016-08-14T12:12:57Z</time>
      </trkpt>
      <trkpt lat="45.05422" lon="5.92722">
        <ele>2050.049</ele>
        <time>2016-08-14T12:13:13Z</time>
      </trkpt>
      <trkpt lat="45.05436" lon="5.92737">
        <ele>2051.149</ele>
        <time>2016-08-14T12:13:34Z</time>
      </trkpt>
      <trkpt lat="45.05439" lon="5.92737">
        <ele>2050.477</ele>
        <time>2016-08-14T12:13:36Z</time>
      </trkpt>
      <trkpt lat="45.05448" lon="5.92738">
        <ele>2049.808</ele>
        <time>2016-08-14T12:13:54Z</time>
      </trkpt>
      <trkpt lat="45.05451" lon="5.92745">
        <ele>2049.003</ele>
        <time>2016-08-14T12:14:03Z</time>
      </trkpt>
      <trkpt lat="45.05466" lon="5.92757">
        <ele>2048.289</ele>
        <time>2016-08-14T12:14:21Z</time>
      </trkpt>
      <trkpt lat="45.05468" lon="5.92758">
        <ele>2048.472</ele>
        <time>2016-08-14T12:14:23Z</time>
      </trkpt>
      <trkpt lat="45.05481" lon="5.92766">
        <ele>2050.112</ele>
        <time>2016-08-14T12:14:39Z</time>
      </trkpt>
      <trkpt lat="45.05489" lon="5.92765">
        <ele>2049.626</ele>
        <time>2016-08-14T12:14:55Z</time>
      </trkpt>
      <trkpt lat="45.05502" lon="5.92765">
        <ele>2049.125</ele>
        <time>2016-08-14T12:15:07Z</time>
      </trkpt>
      <trkpt lat="45.0552" lon="5.92765">
        <ele>2048.325</ele>
        <time>2016-08-14T12:15:24Z</time>
      </trkpt>
      <trkpt lat="45.05536" lon="5.92762">
        <ele>2048.083</ele>
        <time>2016-08-14T12:15:42Z</time>
      </trkpt>
      <trkpt lat="45.05544" lon="5.92764">
        <ele>2048.237</ele>
        <time>2016-08-14T12:16:04Z</time>
      </trkpt>
      <trkpt lat="45.05545" lon="5.92787">
        <ele>2048.9</ele>
        <time>2016-08-14T12:16:20Z</time>
      </trkpt>
      <trkpt lat="45.05547" lon="5.92814">
        <ele>2048.5</ele>
        <time>2016-08-14T12:16:42Z</time>
      </trkpt>
      <trkpt lat="45.0555" lon="5.92821">
        <ele>2049.229</ele>
        <time>2016-08-14T12:17:03Z</time>
      </trkpt>
      <trkpt lat="45.05551" lon="5.92823">
        <ele>2049.197</ele>
        <time>2016-08-14T12:17:05Z</time>
      </trkpt>
      <trkpt lat="45.05558" lon="5.9283">
        <ele>2049.037</ele>
        <time>2016-08-14T12:17:12Z</time>
      </trkpt>
      <trkpt lat="45.0557" lon="5.92849">
        <ele>2049.483</ele>
        <time>2016-08-14T12:17:30Z</time>
      </trkpt>
      <trkpt lat="45.05578" lon="5.92852">
        <ele>2049.721</ele>
        <time>2016-08-14T12:17:46Z</time>
      </trkpt>
      <trkpt lat="45.05599" lon="5.92857">
        <ele>2050.192</ele>
        <time>2016-08-14T12:18:02Z</time>
      </trkpt>
      <trkpt lat="45.0562" lon="5.92861">
        <ele>2049.569</ele>
        <time>2016-08-14T12:18:23Z</time>
      </trkpt>
      <trkpt lat="45.05625" lon="5.92858">
        <ele>2048.514</ele>
        <time>2016-08-14T12:18:29Z</time>
      </trkpt>
      <trkpt lat="45.05636" lon="5.92861">
        <ele>2050.196</ele>
        <time>2016-08-14T12:18:44Z</time>
      </trkpt>
      <trkpt lat="45.05637" lon="5.92861">
        <ele>2050.004</ele>
        <time>2016-08-14T12:19:00Z</time>
      </trkpt>
      <trkpt lat="45.05639" lon="5.92861">
        <ele>2054.105</ele>
        <time>2016-08-14T13:02:46Z</time>
      </trkpt>
      <trkpt lat="45.05649" lon="5.92867">
        <ele>2054.832</ele>
        <time>2016-08-14T13:03:00Z</time>
      </trkpt>
      <trkpt lat="45.05664" lon="5.92879">
        <ele>2054.898</ele>
        <time>2016-08-14T13:03:20Z</time>
      </trkpt>
      <trkpt lat="45.05666" lon="5.92881">
        <ele>2055.796</ele>
        <time>2016-08-14T13:03:39Z</time>
      </trkpt>
      <trkpt lat="45.0567" lon="5.92884">
        <ele>2055.789</ele>
        <time>2016-08-14T13:03:47Z</time>
      </trkpt>
      <trkpt lat="45.05682" lon="5.92889">
        <ele>2055.691</ele>
        <time>2016-08-14T13:04:00Z</time>
      </trkpt>
      <trkpt lat="45.05698" lon="5.92892">
        <ele>2054.278</ele>
        <time>2016-08-14T13:04:19Z</time>
      </trkpt>
      <trkpt lat="45.0571" lon="5.92894">
        <ele>2056.219</ele>
        <time>2016-08-14T13:04:36Z</time>
      </trkpt>
      <trkpt lat="45.05725" lon="5.92897">
        <ele>2056.208</ele>
        <time>2016-08-14T13:04:52Z</time>
      </trkpt>
      <trkpt lat="45.05734" lon="5.92906">
        <ele>2055.806</ele>
        <time>2016-08-14T13:05:04Z</time>
      </trkpt>
      <trkpt lat="45.05738" lon="5.92908">
        <ele>2055.47</ele>
        <time>2016-08-14T13:05:22Z</time>
      </trkpt>
      <trkpt lat="45.05741" lon="5.9291">
        <ele>2055.208</ele>
        <time>2016-08-14T13:06:23Z</time>
      </trkpt>
      <trkpt lat="45.05757" lon="5.92907">
        <ele>2053.813</ele>
        <time>2016-08-14T13:07:02Z</time>
      </trkpt>
      <trkpt lat="45.05768" lon="5.92911">
        <ele>2054.22</ele>
        <time>2016-08-14T13:07:13Z</time>
      </trkpt>
      <trkpt lat="45.05772" lon="5.92913">
        <ele>2055.003</ele>
        <time>2016-08-14T13:07:36Z</time>
      </trkpt>
      <trkpt lat="45.05774" lon="5.92914">
        <ele>2055.298</ele>
        <time>2016-08-14T13:10:14Z</time>
      </trkpt>
      <trkpt lat="45.05779" lon="5.92915">
        <ele>2054.418</ele>
        <time>2016-08-14T13:12:25Z</time>
      </trkpt>
      <trkpt lat="45.05798" lon="5.92912">
        <ele>2052.568</ele>
        <time>2016-08-14T13:12:40Z</time>
      </trkpt>
      <trkpt lat="45.05803" lon="5.9291">
        <ele>2053.187</ele>
        <time>2016-08-14T13:12:44Z</time>
      </trkpt>
      <trkpt lat="45.05822" lon="5.92897">
        <ele>2053.832</ele>
        <time>2016-08-14T13:13:03Z</time>
      </trkpt>
      <trkpt lat="45.05833" lon="5.92892">
        <ele>2054.884</ele>
        <time>2016-08-14T13:13:16Z</time>
      </trkpt>
      <trkpt lat="45.0585" lon="5.92885">
        <ele>2054.284</ele>
        <time>2016-08-14T13:13:33Z</time>
      </trkpt>
      <trkpt lat="45.05859" lon="5.92884">
        <ele>2053.868</ele>
        <time>2016-08-14T13:13:49Z</time>
      </trkpt>
      <trkpt lat="45.05874" lon="5.92887">
        <ele>2053.597</ele>
        <time>2016-08-14T13:14:05Z</time>
      </trkpt>
      <trkpt lat="45.05878" lon="5.92893">
        <ele>2053.806</ele>
        <time>2016-08-14T13:14:10Z</time>
      </trkpt>
      <trkpt lat="45.05893" lon="5.92903">
        <ele>2053.27</ele>
        <time>2016-08-14T13:14:27Z</time>
      </trkpt>
      <trkpt lat="45.05896" lon="5.92915">
        <ele>2053.773</ele>
        <time>2016-08-14T13:14:46Z</time>
      </trkpt>
      <trkpt lat="45.059" lon="5.9292">
        <ele>2053.45</ele>
        <time>2016-08-14T13:15:05Z</time>
      </trkpt>
      <trkpt lat="45.05901" lon="5.92924">
        <ele>2053.282</ele>
        <time>2016-08-14T13:15:25Z</time>
      </trkpt>
      <trkpt lat="45.05901" lon="5.92932">
        <ele>2052.377</ele>
        <time>2016-08-14T13:15:48Z</time>
      </trkpt>
      <trkpt lat="45.05907" lon="5.92924">
        <ele>2053.131</ele>
        <time>2016-08-14T13:16:30Z</time>
      </trkpt>
      <trkpt lat="45.05924" lon="5.9293">
        <ele>2054.139</ele>
        <time>2016-08-14T13:16:48Z</time>
      </trkpt>
      <trkpt lat="45.05932" lon="5.92938">
        <ele>2056.165</ele>
        <time>2016-08-14T13:17:51Z</time>
      </trkpt>
      <trkpt lat="45.05934" lon="5.92939">
        <ele>2055.737</ele>
        <time>2016-08-14T13:17:53Z</time>
      </trkpt>
      <trkpt lat="45.05939" lon="5.92937">
        <ele>2054.987</ele>
        <time>2016-08-14T13:17:58Z</time>
      </trkpt>
      <trkpt lat="45.05945" lon="5.92935">
        <ele>2054.203</ele>
        <time>2016-08-14T13:18:02Z</time>
      </trkpt>
      <trkpt lat="45.05969" lon="5.92929">
        <ele>2053.658</ele>
        <time>2016-08-14T13:18:23Z</time>
      </trkpt>
      <trkpt lat="45.05977" lon="5.92928">
        <ele>2053.769</ele>
        <time>2016-08-14T13:18:31Z</time>
      </trkpt>
      <trkpt lat="45.05981" lon="5.9293">
        <ele>2053.467</ele>
        <time>2016-08-14T13:18:35Z</time>
      </trkpt>
      <trkpt lat="45.06005" lon="5.92943">
        <ele>2053.013</ele>
        <time>2016-08-14T13:19:01Z</time>
      </trkpt>
      <trkpt lat="45.06011" lon="5.92947">
        <ele>2053.427</ele>
        <time>2016-08-14T13:19:25Z</time>
      </trkpt>
      <trkpt lat="45.06027" lon="5.9295">
        <ele>2052.227</ele>
        <time>2016-08-14T13:19:53Z</time>
      </trkpt>
      <trkpt lat="45.06045" lon="5.9295">
        <ele>2049.35</ele>
        <time>2016-08-14T13:20:08Z</time>
      </trkpt>
      <trkpt lat="45.06079" lon="5.92951">
        <ele>2048.193</ele>
        <time>2016-08-14T13:20:36Z</time>
      </trkpt>
      <trkpt lat="45.06104" lon="5.92954">
        <ele>2047.882</ele>
        <time>2016-08-14T13:20:58Z</time>
      </trkpt>
      <trkpt lat="45.0612" lon="5.9296">
        <ele>2046.092</ele>
        <time>2016-08-14T13:21:13Z</time>
      </trkpt>
      <trkpt lat="45.06146" lon="5.92969">
        <ele>2044.049</ele>
        <time>2016-08-14T13:21:36Z</time>
      </trkpt>
      <trkpt lat="45.06167" lon="5.92973">
        <ele>2042.755</ele>
        <time>2016-08-14T13:21:53Z</time>
      </trkpt>
      <trkpt lat="45.06173" lon="5.92973">
        <ele>2042.777</ele>
        <time>2016-08-14T13:22:00Z</time>
      </trkpt>
      <trkpt lat="45.06179" lon="5.92968">
        <ele>2042.735</ele>
        <time>2016-08-14T13:22:07Z</time>
      </trkpt>
      <trkpt lat="45.06182" lon="5.92962">
        <ele>2043.588</ele>
        <time>2016-08-14T13:22:11Z</time>
      </trkpt>
      <trkpt lat="45.0619" lon="5.92967">
        <ele>2043.401</ele>
        <time>2016-08-14T13:22:25Z</time>
      </trkpt>
      <trkpt lat="45.06195" lon="5.9296">
        <ele>2042.385</ele>
        <time>2016-08-14T13:22:46Z</time>
      </trkpt>
      <trkpt lat="45.062" lon="5.92955">
        <ele>2042.666</ele>
        <time>2016-08-14T13:23:00Z</time>
      </trkpt>
      <trkpt lat="45.06201" lon="5.92952">
        <ele>2042.443</ele>
        <time>2016-08-14T13:23:16Z</time>
      </trkpt>
      <trkpt lat="45.06214" lon="5.92945">
        <ele>2041.752</ele>
        <time>2016-08-14T13:23:30Z</time>
      </trkpt>
      <trkpt lat="45.06227" lon="5.92937">
        <ele>2040.628</ele>
        <time>2016-08-14T13:23:44Z</time>
      </trkpt>
      <trkpt lat="45.06236" lon="5.92942">
        <ele>2040.721</ele>
        <time>2016-08-14T13:23:52Z</time>
      </trkpt>
      <trkpt lat="45.06258" lon="5.92941">
        <ele>2039.513</ele>
        <time>2016-08-14T13:24:15Z</time>
      </trkpt>
      <trkpt lat="45.06271" lon="5.92928">
        <ele>2035.756</ele>
        <time>2016-08-14T13:24:35Z</time>
      </trkpt>
      <trkpt lat="45.0628" lon="5.92927">
        <ele>2034.377</ele>
        <time>2016-08-14T13:24:44Z</time>
      </trkpt>
      <trkpt lat="45.06282" lon="5.92927">
        <ele>2034.195</ele>
        <time>2016-08-14T13:24:46Z</time>
      </trkpt>
      <trkpt lat="45.06298" lon="5.92913">
        <ele>2031.878</ele>
        <time>2016-08-14T13:25:07Z</time>
      </trkpt>
      <trkpt lat="45.06299" lon="5.92911">
        <ele>2031.22</ele>
        <time>2016-08-14T13:25:09Z</time>
      </trkpt>
      <trkpt lat="45.06301" lon="5.92906">
        <ele>2030.342</ele>
        <time>2016-08-14T13:25:13Z</time>
      </trkpt>
      <trkpt lat="45.06312" lon="5.92892">
        <ele>2027.954</ele>
        <time>2016-08-14T13:25:30Z</time>
      </trkpt>
      <trkpt lat="45.06318" lon="5.92895">
        <ele>2025.73</ele>
        <time>2016-08-14T13:25:43Z</time>
      </trkpt>
      <trkpt lat="45.06326" lon="5.92898">
        <ele>2023.473</ele>
        <time>2016-08-14T13:25:53Z</time>
      </trkpt>
      <trkpt lat="45.06328" lon="5.92898">
        <ele>2022.875</ele>
        <time>2016-08-14T13:25:55Z</time>
      </trkpt>
      <trkpt lat="45.06336" lon="5.92897">
        <ele>2021.789</ele>
        <time>2016-08-14T13:26:03Z</time>
      </trkpt>
      <trkpt lat="45.06339" lon="5.92892">
        <ele>2019.965</ele>
        <time>2016-08-14T13:27:22Z</time>
      </trkpt>
      <trkpt lat="45.06346" lon="5.92895">
        <ele>2019.258</ele>
        <time>2016-08-14T13:27:31Z</time>
      </trkpt>
      <trkpt lat="45.06349" lon="5.92895">
        <ele>2019.201</ele>
        <time>2016-08-14T13:27:43Z</time>
      </trkpt>
      <trkpt lat="45.06351" lon="5.92893">
        <ele>2018.409</ele>
        <time>2016-08-14T13:27:45Z</time>
      </trkpt>
      <trkpt lat="45.06363" lon="5.92895">
        <ele>2016.509</ele>
        <time>2016-08-14T13:28:02Z</time>
      </trkpt>
      <trkpt lat="45.06367" lon="5.9289">
        <ele>2015.159</ele>
        <time>2016-08-14T13:28:29Z</time>
      </trkpt>
      <trkpt lat="45.06374" lon="5.92888">
        <ele>2013.517</ele>
        <time>2016-08-14T13:28:36Z</time>
      </trkpt>
      <trkpt lat="45.06377" lon="5.92888">
        <ele>2013.058</ele>
        <time>2016-08-14T13:28:40Z</time>
      </trkpt>
      <trkpt lat="45.06383" lon="5.92892">
        <ele>2011.644</ele>
        <time>2016-08-14T13:28:46Z</time>
      </trkpt>
      <trkpt lat="45.06387" lon="5.92891">
        <ele>2010.386</ele>
        <time>2016-08-14T13:28:50Z</time>
      </trkpt>
      <trkpt lat="45.0639" lon="5.92893">
        <ele>2010.338</ele>
        <time>2016-08-14T13:28:53Z</time>
      </trkpt>
      <trkpt lat="45.06393" lon="5.92892">
        <ele>2009.825</ele>
        <time>2016-08-14T13:28:55Z</time>
      </trkpt>
      <trkpt lat="45.06396" lon="5.92893">
        <ele>2009.724</ele>
        <time>2016-08-14T13:28:59Z</time>
      </trkpt>
      <trkpt lat="45.06406" lon="5.92892">
        <ele>2007.467</ele>
        <time>2016-08-14T13:29:15Z</time>
      </trkpt>
      <trkpt lat="45.06405" lon="5.92898">
        <ele>2006.52</ele>
        <time>2016-08-14T13:29:35Z</time>
      </trkpt>
      <trkpt lat="45.06412" lon="5.92905">
        <ele>2004.585</ele>
        <time>2016-08-14T13:29:45Z</time>
      </trkpt>
      <trkpt lat="45.06418" lon="5.92909">
        <ele>2002.798</ele>
        <time>2016-08-14T13:29:51Z</time>
      </trkpt>
      <trkpt lat="45.06424" lon="5.92908">
        <ele>2001.739</ele>
        <time>2016-08-14T13:29:56Z</time>
      </trkpt>
      <trkpt lat="45.06434" lon="5.92908">
        <ele>2000.637</ele>
        <time>2016-08-14T13:30:06Z</time>
      </trkpt>
      <trkpt lat="45.06443" lon="5.92913">
        <ele>1997.975</ele>
        <time>2016-08-14T13:30:20Z</time>
      </trkpt>
      <trkpt lat="45.06449" lon="5.92912">
        <ele>1996.145</ele>
        <time>2016-08-14T13:30:33Z</time>
      </trkpt>
      <trkpt lat="45.06456" lon="5.9292">
        <ele>1993.595</ele>
        <time>2016-08-14T13:30:49Z</time>
      </trkpt>
      <trkpt lat="45.06462" lon="5.9292">
        <ele>1992.166</ele>
        <time>2016-08-14T13:31:09Z</time>
      </trkpt>
      <trkpt lat="45.06471" lon="5.92925">
        <ele>1988.912</ele>
        <time>2016-08-14T13:31:23Z</time>
      </trkpt>
      <trkpt lat="45.06471" lon="5.92928">
        <ele>1988.777</ele>
        <time>2016-08-14T13:31:53Z</time>
      </trkpt>
      <trkpt lat="45.06479" lon="5.92935">
        <ele>1986.646</ele>
        <time>2016-08-14T13:32:21Z</time>
      </trkpt>
      <trkpt lat="45.06487" lon="5.92941">
        <ele>1984.952</ele>
        <time>2016-08-14T13:32:30Z</time>
      </trkpt>
      <trkpt lat="45.06488" lon="5.92943">
        <ele>1983.646</ele>
        <time>2016-08-14T13:32:38Z</time>
      </trkpt>
      <trkpt lat="45.06502" lon="5.92938">
        <ele>1982.009</ele>
        <time>2016-08-14T13:32:49Z</time>
      </trkpt>
      <trkpt lat="45.06506" lon="5.9294">
        <ele>1981.872</ele>
        <time>2016-08-14T13:32:53Z</time>
      </trkpt>
      <trkpt lat="45.06518" lon="5.92944">
        <ele>1980.151</ele>
        <time>2016-08-14T13:33:03Z</time>
      </trkpt>
      <trkpt lat="45.06524" lon="5.92951">
        <ele>1979.495</ele>
        <time>2016-08-14T13:33:10Z</time>
      </trkpt>
      <trkpt lat="45.06533" lon="5.92963">
        <ele>1977.234</ele>
        <time>2016-08-14T13:33:22Z</time>
      </trkpt>
      <trkpt lat="45.06547" lon="5.92965">
        <ele>1974.438</ele>
        <time>2016-08-14T13:33:36Z</time>
      </trkpt>
      <trkpt lat="45.06561" lon="5.92962">
        <ele>1971.449</ele>
        <time>2016-08-14T13:33:51Z</time>
      </trkpt>
      <trkpt lat="45.06567" lon="5.92964">
        <ele>1970.355</ele>
        <time>2016-08-14T13:33:58Z</time>
      </trkpt>
      <trkpt lat="45.0657" lon="5.9297">
        <ele>1969.735</ele>
        <time>2016-08-14T13:34:04Z</time>
      </trkpt>
      <trkpt lat="45.06574" lon="5.92978">
        <ele>1969.843</ele>
        <time>2016-08-14T13:34:11Z</time>
      </trkpt>
      <trkpt lat="45.06575" lon="5.92981">
        <ele>1969.964</ele>
        <time>2016-08-14T13:34:13Z</time>
      </trkpt>
      <trkpt lat="45.06576" lon="5.92983">
        <ele>1970.311</ele>
        <time>2016-08-14T13:34:15Z</time>
      </trkpt>
      <trkpt lat="45.06579" lon="5.92986">
        <ele>1969.895</ele>
        <time>2016-08-14T13:34:19Z</time>
      </trkpt>
      <trkpt lat="45.06587" lon="5.92995">
        <ele>1970.051</ele>
        <time>2016-08-14T13:34:30Z</time>
      </trkpt>
      <trkpt lat="45.0659" lon="5.92994">
        <ele>1969.584</ele>
        <time>2016-08-14T13:34:33Z</time>
      </trkpt>
      <trkpt lat="45.06598" lon="5.92999">
        <ele>1969.653</ele>
        <time>2016-08-14T13:34:42Z</time>
      </trkpt>
      <trkpt lat="45.066" lon="5.93002">
        <ele>1970.387</ele>
        <time>2016-08-14T13:34:55Z</time>
      </trkpt>
      <trkpt lat="45.06603" lon="5.92988">
        <ele>1969.978</ele>
        <time>2016-08-14T13:35:59Z</time>
      </trkpt>
      <trkpt lat="45.06604" lon="5.92984">
        <ele>1968.665</ele>
        <time>2016-08-14T13:36:03Z</time>
      </trkpt>
      <trkpt lat="45.06605" lon="5.92982">
        <ele>1967.42</ele>
        <time>2016-08-14T13:36:05Z</time>
      </trkpt>
      <trkpt lat="45.06606" lon="5.92975">
        <ele>1967.533</ele>
        <time>2016-08-14T13:36:09Z</time>
      </trkpt>
      <trkpt lat="45.06604" lon="5.92971">
        <ele>1967.562</ele>
        <time>2016-08-14T13:36:12Z</time>
      </trkpt>
      <trkpt lat="45.06603" lon="5.92967">
        <ele>1967.406</ele>
        <time>2016-08-14T13:36:15Z</time>
      </trkpt>
      <trkpt lat="45.06595" lon="5.92949">
        <ele>1964.796</ele>
        <time>2016-08-14T13:36:33Z</time>
      </trkpt>
      <trkpt lat="45.06592" lon="5.92948">
        <ele>1963.89</ele>
        <time>2016-08-14T13:36:42Z</time>
      </trkpt>
      <trkpt lat="45.06595" lon="5.92943">
        <ele>1962.899</ele>
        <time>2016-08-14T13:36:46Z</time>
      </trkpt>
      <trkpt lat="45.06594" lon="5.92938">
        <ele>1963.538</ele>
        <time>2016-08-14T13:36:50Z</time>
      </trkpt>
      <trkpt lat="45.06591" lon="5.92933">
        <ele>1963.041</ele>
        <time>2016-08-14T13:36:55Z</time>
      </trkpt>
      <trkpt lat="45.06596" lon="5.92916">
        <ele>1962.747</ele>
        <time>2016-08-14T13:37:10Z</time>
      </trkpt>
      <trkpt lat="45.06598" lon="5.92903">
        <ele>1962.179</ele>
        <time>2016-08-14T13:37:31Z</time>
      </trkpt>
      <trkpt lat="45.06596" lon="5.92891">
        <ele>1961.327</ele>
        <time>2016-08-14T13:37:41Z</time>
      </trkpt>
      <trkpt lat="45.06592" lon="5.92868">
        <ele>1960.979</ele>
        <time>2016-08-14T13:37:56Z</time>
      </trkpt>
      <trkpt lat="45.06589" lon="5.92846">
        <ele>1960.602</ele>
        <time>2016-08-14T13:38:13Z</time>
      </trkpt>
      <trkpt lat="45.06585" lon="5.92831">
        <ele>1957.645</ele>
        <time>2016-08-14T13:38:25Z</time>
      </trkpt>
      <trkpt lat="45.06585" lon="5.92823">
        <ele>1956.676</ele>
        <time>2016-08-14T13:38:30Z</time>
      </trkpt>
      <trkpt lat="45.06587" lon="5.92819">
        <ele>1956.28</ele>
        <time>2016-08-14T13:38:34Z</time>
      </trkpt>
      <trkpt lat="45.06588" lon="5.92813">
        <ele>1956.435</ele>
        <time>2016-08-14T13:38:38Z</time>
      </trkpt>
      <trkpt lat="45.06588" lon="5.9281">
        <ele>1955.815</ele>
        <time>2016-08-14T13:38:40Z</time>
      </trkpt>
      <trkpt lat="45.06589" lon="5.92803">
        <ele>1956.154</ele>
        <time>2016-08-14T13:38:45Z</time>
      </trkpt>
      <trkpt lat="45.06585" lon="5.9279">
        <ele>1955.775</ele>
        <time>2016-08-14T13:38:55Z</time>
      </trkpt>
      <trkpt lat="45.06585" lon="5.92767">
        <ele>1953.922</ele>
        <time>2016-08-14T13:39:14Z</time>
      </trkpt>
      <trkpt lat="45.0659" lon="5.92759">
        <ele>1952.948</ele>
        <time>2016-08-14T13:39:28Z</time>
      </trkpt>
      <trkpt lat="45.06589" lon="5.92753">
        <ele>1952.487</ele>
        <time>2016-08-14T13:39:33Z</time>
      </trkpt>
      <trkpt lat="45.06588" lon="5.92727">
        <ele>1951.885</ele>
        <time>2016-08-14T13:39:51Z</time>
      </trkpt>
      <trkpt lat="45.0659" lon="5.9271">
        <ele>1951.658</ele>
        <time>2016-08-14T13:40:03Z</time>
      </trkpt>
      <trkpt lat="45.06589" lon="5.92707">
        <ele>1949.96</ele>
        <time>2016-08-14T13:40:05Z</time>
      </trkpt>
      <trkpt lat="45.06588" lon="5.92698">
        <ele>1948.422</ele>
        <time>2016-08-14T13:40:21Z</time>
      </trkpt>
      <trkpt lat="45.06594" lon="5.92684">
        <ele>1945.119</ele>
        <time>2016-08-14T13:40:46Z</time>
      </trkpt>
      <trkpt lat="45.06599" lon="5.92671">
        <ele>1944.35</ele>
        <time>2016-08-14T13:40:56Z</time>
      </trkpt>
      <trkpt lat="45.0661" lon="5.92648">
        <ele>1942.132</ele>
        <time>2016-08-14T13:41:19Z</time>
      </trkpt>
      <trkpt lat="45.06614" lon="5.92645">
        <ele>1942.478</ele>
        <time>2016-08-14T13:41:28Z</time>
      </trkpt>
      <trkpt lat="45.06635" lon="5.9262">
        <ele>1940.186</ele>
        <time>2016-08-14T13:41:52Z</time>
      </trkpt>
      <trkpt lat="45.06644" lon="5.92611">
        <ele>1940.955</ele>
        <time>2016-08-14T13:42:09Z</time>
      </trkpt>
      <trkpt lat="45.06657" lon="5.92585">
        <ele>1939.922</ele>
        <time>2016-08-14T13:42:33Z</time>
      </trkpt>
      <trkpt lat="45.06667" lon="5.92569">
        <ele>1940.016</ele>
        <time>2016-08-14T13:42:50Z</time>
      </trkpt>
      <trkpt lat="45.0667" lon="5.92565">
        <ele>1940.538</ele>
        <time>2016-08-14T13:42:54Z</time>
      </trkpt>
      <trkpt lat="45.06673" lon="5.92559">
        <ele>1940.79</ele>
        <time>2016-08-14T13:43:00Z</time>
      </trkpt>
      <trkpt lat="45.06685" lon="5.9255">
        <ele>1939.557</ele>
        <time>2016-08-14T13:43:15Z</time>
      </trkpt>
      <trkpt lat="45.06688" lon="5.92542">
        <ele>1939.042</ele>
        <time>2016-08-14T13:43:21Z</time>
      </trkpt>
      <trkpt lat="45.06689" lon="5.92531">
        <ele>1939.479</ele>
        <time>2016-08-14T13:43:31Z</time>
      </trkpt>
      <trkpt lat="45.06693" lon="5.92527">
        <ele>1938.521</ele>
        <time>2016-08-14T13:43:39Z</time>
      </trkpt>
      <trkpt lat="45.06697" lon="5.92515">
        <ele>1937.14</ele>
        <time>2016-08-14T13:43:59Z</time>
      </trkpt>
      <trkpt lat="45.06706" lon="5.92487">
        <ele>1936.059</ele>
        <time>2016-08-14T13:44:20Z</time>
      </trkpt>
      <trkpt lat="45.06709" lon="5.92479">
        <ele>1935.594</ele>
        <time>2016-08-14T13:44:27Z</time>
      </trkpt>
      <trkpt lat="45.06709" lon="5.92477">
        <ele>1934.335</ele>
        <time>2016-08-14T13:44:30Z</time>
      </trkpt>
      <trkpt lat="45.06711" lon="5.9247">
        <ele>1934.103</ele>
        <time>2016-08-14T13:44:35Z</time>
      </trkpt>
      <trkpt lat="45.06716" lon="5.9245">
        <ele>1932.302</ele>
        <time>2016-08-14T13:44:50Z</time>
      </trkpt>
      <trkpt lat="45.06717" lon="5.92444">
        <ele>1931.299</ele>
        <time>2016-08-14T13:44:55Z</time>
      </trkpt>
      <trkpt lat="45.0672" lon="5.92428">
        <ele>1928.393</ele>
        <time>2016-08-14T13:45:08Z</time>
      </trkpt>
      <trkpt lat="45.06723" lon="5.9242">
        <ele>1927.059</ele>
        <time>2016-08-14T13:45:14Z</time>
      </trkpt>
      <trkpt lat="45.06723" lon="5.92412">
        <ele>1926.505</ele>
        <time>2016-08-14T13:45:19Z</time>
      </trkpt>
      <trkpt lat="45.06726" lon="5.92404">
        <ele>1925.593</ele>
        <time>2016-08-14T13:45:25Z</time>
      </trkpt>
      <trkpt lat="45.06727" lon="5.92397">
        <ele>1923.623</ele>
        <time>2016-08-14T13:45:30Z</time>
      </trkpt>
      <trkpt lat="45.06731" lon="5.9238">
        <ele>1921.768</ele>
        <time>2016-08-14T13:45:41Z</time>
      </trkpt>
      <trkpt lat="45.06733" lon="5.92375">
        <ele>1920.829</ele>
        <time>2016-08-14T13:45:45Z</time>
      </trkpt>
      <trkpt lat="45.06737" lon="5.92373">
        <ele>1920.53</ele>
        <time>2016-08-14T13:45:49Z</time>
      </trkpt>
      <trkpt lat="45.06738" lon="5.9237">
        <ele>1918.895</ele>
        <time>2016-08-14T13:45:53Z</time>
      </trkpt>
      <trkpt lat="45.06745" lon="5.92357">
        <ele>1916.641</ele>
        <time>2016-08-14T13:46:05Z</time>
      </trkpt>
      <trkpt lat="45.06757" lon="5.92353">
        <ele>1912.914</ele>
        <time>2016-08-14T13:46:19Z</time>
      </trkpt>
      <trkpt lat="45.06771" lon="5.92333">
        <ele>1910.581</ele>
        <time>2016-08-14T13:46:39Z</time>
      </trkpt>
      <trkpt lat="45.06774" lon="5.92331">
        <ele>1910.388</ele>
        <time>2016-08-14T13:46:53Z</time>
      </trkpt>
      <trkpt lat="45.06773" lon="5.92329">
        <ele>1909.467</ele>
        <time>2016-08-14T13:47:06Z</time>
      </trkpt>
      <trkpt lat="45.06774" lon="5.92326">
        <ele>1909.716</ele>
        <time>2016-08-14T13:47:10Z</time>
      </trkpt>
      <trkpt lat="45.06775" lon="5.92321">
        <ele>1909.647</ele>
        <time>2016-08-14T13:47:14Z</time>
      </trkpt>
      <trkpt lat="45.06778" lon="5.92286">
        <ele>1909.145</ele>
        <time>2016-08-14T13:47:38Z</time>
      </trkpt>
      <trkpt lat="45.06778" lon="5.92283">
        <ele>1909.09</ele>
        <time>2016-08-14T13:47:40Z</time>
      </trkpt>
      <trkpt lat="45.06779" lon="5.92265">
        <ele>1909.207</ele>
        <time>2016-08-14T13:47:52Z</time>
      </trkpt>
      <trkpt lat="45.06776" lon="5.92241">
        <ele>1909.03</ele>
        <time>2016-08-14T13:48:09Z</time>
      </trkpt>
      <trkpt lat="45.06774" lon="5.9223">
        <ele>1909.553</ele>
        <time>2016-08-14T13:48:18Z</time>
      </trkpt>
      <trkpt lat="45.06771" lon="5.92218">
        <ele>1908.26</ele>
        <time>2016-08-14T13:48:35Z</time>
      </trkpt>
      <trkpt lat="45.06768" lon="5.92209">
        <ele>1907.157</ele>
        <time>2016-08-14T13:48:42Z</time>
      </trkpt>
      <trkpt lat="45.06768" lon="5.92201">
        <ele>1906.418</ele>
        <time>2016-08-14T13:48:47Z</time>
      </trkpt>
      <trkpt lat="45.06759" lon="5.92189">
        <ele>1902.873</ele>
        <time>2016-08-14T13:49:02Z</time>
      </trkpt>
      <trkpt lat="45.06753" lon="5.92182">
        <ele>1900.431</ele>
        <time>2016-08-14T13:49:17Z</time>
      </trkpt>
      <trkpt lat="45.06749" lon="5.92184">
        <ele>1900.232</ele>
        <time>2016-08-14T13:49:22Z</time>
      </trkpt>
      <trkpt lat="45.06751" lon="5.92167">
        <ele>1898.191</ele>
        <time>2016-08-14T13:49:33Z</time>
      </trkpt>
      <trkpt lat="45.06752" lon="5.92154">
        <ele>1894.796</ele>
        <time>2016-08-14T13:49:48Z</time>
      </trkpt>
      <trkpt lat="45.06749" lon="5.92146">
        <ele>1893.026</ele>
        <time>2016-08-14T13:50:01Z</time>
      </trkpt>
      <trkpt lat="45.06748" lon="5.92143">
        <ele>1892.424</ele>
        <time>2016-08-14T13:50:17Z</time>
      </trkpt>
      <trkpt lat="45.06746" lon="5.92142">
        <ele>1891.114</ele>
        <time>2016-08-14T13:50:22Z</time>
      </trkpt>
      <trkpt lat="45.06741" lon="5.9214">
        <ele>1889.884</ele>
        <time>2016-08-14T13:50:27Z</time>
      </trkpt>
      <trkpt lat="45.06738" lon="5.92138">
        <ele>1889.431</ele>
        <time>2016-08-14T13:50:31Z</time>
      </trkpt>
      <trkpt lat="45.06741" lon="5.9213">
        <ele>1887.984</ele>
        <time>2016-08-14T13:50:36Z</time>
      </trkpt>
      <trkpt lat="45.06741" lon="5.92127">
        <ele>1887.18</ele>
        <time>2016-08-14T13:50:38Z</time>
      </trkpt>
      <trkpt lat="45.06734" lon="5.92121">
        <ele>1884.958</ele>
        <time>2016-08-14T13:50:46Z</time>
      </trkpt>
      <trkpt lat="45.0673" lon="5.92117">
        <ele>1883.343</ele>
        <time>2016-08-14T13:50:51Z</time>
      </trkpt>
      <trkpt lat="45.06722" lon="5.92109">
        <ele>1879.972</ele>
        <time>2016-08-14T13:51:02Z</time>
      </trkpt>
      <trkpt lat="45.06716" lon="5.921">
        <ele>1878.004</ele>
        <time>2016-08-14T13:51:16Z</time>
      </trkpt>
      <trkpt lat="45.0671" lon="5.92086">
        <ele>1876.257</ele>
        <time>2016-08-14T13:51:52Z</time>
      </trkpt>
      <trkpt lat="45.06705" lon="5.92079">
        <ele>1875.138</ele>
        <time>2016-08-14T13:51:58Z</time>
      </trkpt>
      <trkpt lat="45.06702" lon="5.92071">
        <ele>1872.562</ele>
        <time>2016-08-14T13:52:17Z</time>
      </trkpt>
      <trkpt lat="45.06697" lon="5.92068">
        <ele>1871.756</ele>
        <time>2016-08-14T13:52:31Z</time>
      </trkpt>
      <trkpt lat="45.06693" lon="5.92064">
        <ele>1870.148</ele>
        <time>2016-08-14T13:52:36Z</time>
      </trkpt>
      <trkpt lat="45.06691" lon="5.92062">
        <ele>1869.235</ele>
        <time>2016-08-14T13:52:39Z</time>
      </trkpt>
      <trkpt lat="45.06682" lon="5.9206">
        <ele>1867.564</ele>
        <time>2016-08-14T13:52:47Z</time>
      </trkpt>
      <trkpt lat="45.06673" lon="5.92069">
        <ele>1867.382</ele>
        <time>2016-08-14T13:53:04Z</time>
      </trkpt>
      <trkpt lat="45.06662" lon="5.92072">
        <ele>1869.514</ele>
        <time>2016-08-14T13:53:19Z</time>
      </trkpt>
      <trkpt lat="45.06655" lon="5.92076">
        <ele>1871.089</ele>
        <time>2016-08-14T13:53:32Z</time>
      </trkpt>
      <trkpt lat="45.06653" lon="5.92077">
        <ele>1871.33</ele>
        <time>2016-08-14T13:53:34Z</time>
      </trkpt>
      <trkpt lat="45.06641" lon="5.9208">
        <ele>1871.665</ele>
        <time>2016-08-14T13:53:45Z</time>
      </trkpt>
      <trkpt lat="45.06629" lon="5.92084">
        <ele>1872.281</ele>
        <time>2016-08-14T13:53:58Z</time>
      </trkpt>
      <trkpt lat="45.06619" lon="5.92084">
        <ele>1871.96</ele>
        <time>2016-08-14T13:54:07Z</time>
      </trkpt>
      <trkpt lat="45.06612" lon="5.92081">
        <ele>1872.213</ele>
        <time>2016-08-14T13:54:13Z</time>
      </trkpt>
      <trkpt lat="45.06607" lon="5.92084">
        <ele>1873.126</ele>
        <time>2016-08-14T13:54:18Z</time>
      </trkpt>
      <trkpt lat="45.06594" lon="5.92084">
        <ele>1873.015</ele>
        <time>2016-08-14T13:54:28Z</time>
      </trkpt>
      <trkpt lat="45.06584" lon="5.92085">
        <ele>1872.082</ele>
        <time>2016-08-14T13:54:37Z</time>
      </trkpt>
      <trkpt lat="45.06575" lon="5.92091">
        <ele>1871.106</ele>
        <time>2016-08-14T13:54:47Z</time>
      </trkpt>
      <trkpt lat="45.06568" lon="5.92086">
        <ele>1869.987</ele>
        <time>2016-08-14T13:54:53Z</time>
      </trkpt>
      <trkpt lat="45.0656" lon="5.92082">
        <ele>1868.77</ele>
        <time>2016-08-14T13:55:04Z</time>
      </trkpt>
      <trkpt lat="45.06556" lon="5.92062">
        <ele>1867.763</ele>
        <time>2016-08-14T13:55:14Z</time>
      </trkpt>
      <trkpt lat="45.0655" lon="5.92043">
        <ele>1867.015</ele>
        <time>2016-08-14T13:55:26Z</time>
      </trkpt>
      <trkpt lat="45.06543" lon="5.9204">
        <ele>1867.146</ele>
        <time>2016-08-14T13:55:33Z</time>
      </trkpt>
      <trkpt lat="45.06535" lon="5.92041">
        <ele>1868.155</ele>
        <time>2016-08-14T13:55:40Z</time>
      </trkpt>
      <trkpt lat="45.06528" lon="5.92045">
        <ele>1867.779</ele>
        <time>2016-08-14T13:55:47Z</time>
      </trkpt>
      <trkpt lat="45.06524" lon="5.92046">
        <ele>1867.785</ele>
        <time>2016-08-14T13:55:51Z</time>
      </trkpt>
      <trkpt lat="45.06504" lon="5.92032">
        <ele>1867.239</ele>
        <time>2016-08-14T13:56:11Z</time>
      </trkpt>
      <trkpt lat="45.06483" lon="5.92014">
        <ele>1868.111</ele>
        <time>2016-08-14T13:56:34Z</time>
      </trkpt>
      <trkpt lat="45.06469" lon="5.92004">
        <ele>1869.211</ele>
        <time>2016-08-14T13:56:49Z</time>
      </trkpt>
      <trkpt lat="45.06455" lon="5.91988">
        <ele>1871.854</ele>
        <time>2016-08-14T13:57:09Z</time>
      </trkpt>
      <trkpt lat="45.06444" lon="5.91976">
        <ele>1874.46</ele>
        <time>2016-08-14T13:57:26Z</time>
      </trkpt>
      <trkpt lat="45.0642" lon="5.91965">
        <ele>1874.886</ele>
        <time>2016-08-14T13:57:50Z</time>
      </trkpt>
      <trkpt lat="45.064" lon="5.91947">
        <ele>1875.462</ele>
        <time>2016-08-14T13:58:13Z</time>
      </trkpt>
      <trkpt lat="45.0638" lon="5.91922">
        <ele>1873.755</ele>
        <time>2016-08-14T13:58:37Z</time>
      </trkpt>
      <trkpt lat="45.06366" lon="5.91919">
        <ele>1871.968</ele>
        <time>2016-08-14T13:58:55Z</time>
      </trkpt>
      <trkpt lat="45.06361" lon="5.91916">
        <ele>1871.503</ele>
        <time>2016-08-14T13:59:00Z</time>
      </trkpt>
      <trkpt lat="45.06342" lon="5.9189">
        <ele>1867.884</ele>
        <time>2016-08-14T13:59:24Z</time>
      </trkpt>
      <trkpt lat="45.06332" lon="5.91871">
        <ele>1865.683</ele>
        <time>2016-08-14T13:59:45Z</time>
      </trkpt>
      <trkpt lat="45.0632" lon="5.91856">
        <ele>1864.966</ele>
        <time>2016-08-14T14:00:05Z</time>
      </trkpt>
      <trkpt lat="45.06304" lon="5.91843">
        <ele>1863.277</ele>
        <time>2016-08-14T14:00:26Z</time>
      </trkpt>
      <trkpt lat="45.06302" lon="5.9184">
        <ele>1863.201</ele>
        <time>2016-08-14T14:01:14Z</time>
      </trkpt>
      <trkpt lat="45.063" lon="5.91836">
        <ele>1863.3</ele>
        <time>2016-08-14T14:01:19Z</time>
      </trkpt>
      <trkpt lat="45.06299" lon="5.91832">
        <ele>1863.223</ele>
        <time>2016-08-14T14:01:32Z</time>
      </trkpt>
      <trkpt lat="45.06293" lon="5.9183">
        <ele>1861.367</ele>
        <time>2016-08-14T14:01:56Z</time>
      </trkpt>
      <trkpt lat="45.06291" lon="5.91825">
        <ele>1861.485</ele>
        <time>2016-08-14T14:02:09Z</time>
      </trkpt>
      <trkpt lat="45.0629" lon="5.91818">
        <ele>1861.079</ele>
        <time>2016-08-14T14:02:30Z</time>
      </trkpt>
      <trkpt lat="45.06286" lon="5.91815">
        <ele>1860.251</ele>
        <time>2016-08-14T14:02:35Z</time>
      </trkpt>
      <trkpt lat="45.06284" lon="5.91814">
        <ele>1860.8</ele>
        <time>2016-08-14T14:02:37Z</time>
      </trkpt>
      <trkpt lat="45.06269" lon="5.91797">
        <ele>1858.782</ele>
        <time>2016-08-14T14:02:55Z</time>
      </trkpt>
      <trkpt lat="45.06256" lon="5.91783">
        <ele>1857.601</ele>
        <time>2016-08-14T14:03:10Z</time>
      </trkpt>
      <trkpt lat="45.06254" lon="5.91782">
        <ele>1856.99</ele>
        <time>2016-08-14T14:03:12Z</time>
      </trkpt>
      <trkpt lat="45.06249" lon="5.91776">
        <ele>1856.603</ele>
        <time>2016-08-14T14:03:17Z</time>
      </trkpt>
      <trkpt lat="45.06245" lon="5.91773">
        <ele>1855.592</ele>
        <time>2016-08-14T14:03:21Z</time>
      </trkpt>
      <trkpt lat="45.06235" lon="5.9177">
        <ele>1854.585</ele>
        <time>2016-08-14T14:03:29Z</time>
      </trkpt>
      <trkpt lat="45.06235" lon="5.91765">
        <ele>1853.646</ele>
        <time>2016-08-14T14:03:32Z</time>
      </trkpt>
      <trkpt lat="45.06228" lon="5.91753">
        <ele>1852.477</ele>
        <time>2016-08-14T14:03:41Z</time>
      </trkpt>
      <trkpt lat="45.06225" lon="5.91739">
        <ele>1851.875</ele>
        <time>2016-08-14T14:03:49Z</time>
      </trkpt>
      <trkpt lat="45.06218" lon="5.91722">
        <ele>1849.768</ele>
        <time>2016-08-14T14:04:00Z</time>
      </trkpt>
      <trkpt lat="45.06216" lon="5.91715">
        <ele>1848.775</ele>
        <time>2016-08-14T14:04:04Z</time>
      </trkpt>
      <trkpt lat="45.06214" lon="5.91701">
        <ele>1846.964</ele>
        <time>2016-08-14T14:04:10Z</time>
      </trkpt>
      <trkpt lat="45.06214" lon="5.91688">
        <ele>1846.731</ele>
        <time>2016-08-14T14:04:17Z</time>
      </trkpt>
      <trkpt lat="45.06213" lon="5.91681">
        <ele>1846.228</ele>
        <time>2016-08-14T14:04:21Z</time>
      </trkpt>
      <trkpt lat="45.06213" lon="5.91676">
        <ele>1845.73</ele>
        <time>2016-08-14T14:04:24Z</time>
      </trkpt>
      <trkpt lat="45.06214" lon="5.91667">
        <ele>1844.655</ele>
        <time>2016-08-14T14:04:29Z</time>
      </trkpt>
      <trkpt lat="45.06217" lon="5.91659">
        <ele>1844.116</ele>
        <time>2016-08-14T14:04:34Z</time>
      </trkpt>
      <trkpt lat="45.06223" lon="5.91648">
        <ele>1843.417</ele>
        <time>2016-08-14T14:04:41Z</time>
      </trkpt>
      <trkpt lat="45.06224" lon="5.91644">
        <ele>1843.238</ele>
        <time>2016-08-14T14:04:44Z</time>
      </trkpt>
      <trkpt lat="45.0622" lon="5.91632">
        <ele>1842.146</ele>
        <time>2016-08-14T14:04:50Z</time>
      </trkpt>
      <trkpt lat="45.06222" lon="5.9161">
        <ele>1840.983</ele>
        <time>2016-08-14T14:05:01Z</time>
      </trkpt>
      <trkpt lat="45.06222" lon="5.91607">
        <ele>1840.658</ele>
        <time>2016-08-14T14:05:04Z</time>
      </trkpt>
      <trkpt lat="45.06224" lon="5.91589">
        <ele>1840.121</ele>
        <time>2016-08-14T14:05:13Z</time>
      </trkpt>
      <trkpt lat="45.06223" lon="5.91584">
        <ele>1839.543</ele>
        <time>2016-08-14T14:05:16Z</time>
      </trkpt>
      <trkpt lat="45.06223" lon="5.91577">
        <ele>1839.026</ele>
        <time>2016-08-14T14:05:20Z</time>
      </trkpt>
      <trkpt lat="45.0622" lon="5.91572">
        <ele>1839.006</ele>
        <time>2016-08-14T14:05:23Z</time>
      </trkpt>
      <trkpt lat="45.06224" lon="5.91566">
        <ele>1838.317</ele>
        <time>2016-08-14T14:05:32Z</time>
      </trkpt>
      <trkpt lat="45.06217" lon="5.91554">
        <ele>1837.95</ele>
        <time>2016-08-14T14:05:39Z</time>
      </trkpt>
      <trkpt lat="45.06218" lon="5.91548">
        <ele>1837.335</ele>
        <time>2016-08-14T14:05:42Z</time>
      </trkpt>
      <trkpt lat="45.06217" lon="5.91545">
        <ele>1837.793</ele>
        <time>2016-08-14T14:05:44Z</time>
      </trkpt>
      <trkpt lat="45.06215" lon="5.91533">
        <ele>1836.978</ele>
        <time>2016-08-14T14:05:52Z</time>
      </trkpt>
      <trkpt lat="45.06208" lon="5.91503">
        <ele>1835.274</ele>
        <time>2016-08-14T14:06:12Z</time>
      </trkpt>
      <trkpt lat="45.06207" lon="5.91494">
        <ele>1835.46</ele>
        <time>2016-08-14T14:06:17Z</time>
      </trkpt>
      <trkpt lat="45.06208" lon="5.91489">
        <ele>1835.063</ele>
        <time>2016-08-14T14:06:20Z</time>
      </trkpt>
      <trkpt lat="45.06209" lon="5.91486">
        <ele>1834.756</ele>
        <time>2016-08-14T14:06:22Z</time>
      </trkpt>
      <trkpt lat="45.06208" lon="5.91481">
        <ele>1835.125</ele>
        <time>2016-08-14T14:06:26Z</time>
      </trkpt>
      <trkpt lat="45.06203" lon="5.91454">
        <ele>1832.932</ele>
        <time>2016-08-14T14:06:44Z</time>
      </trkpt>
      <trkpt lat="45.062" lon="5.91451">
        <ele>1832.485</ele>
        <time>2016-08-14T14:06:48Z</time>
      </trkpt>
      <trkpt lat="45.0619" lon="5.91443">
        <ele>1830.495</ele>
        <time>2016-08-14T14:06:56Z</time>
      </trkpt>
      <trkpt lat="45.06178" lon="5.91437">
        <ele>1828.235</ele>
        <time>2016-08-14T14:07:06Z</time>
      </trkpt>
      <trkpt lat="45.0617" lon="5.91442">
        <ele>1825.824</ele>
        <time>2016-08-14T14:07:19Z</time>
      </trkpt>
      <trkpt lat="45.06167" lon="5.91454">
        <ele>1825.054</ele>
        <time>2016-08-14T14:07:29Z</time>
      </trkpt>
      <trkpt lat="45.06167" lon="5.91458">
        <ele>1824.996</ele>
        <time>2016-08-14T14:07:31Z</time>
      </trkpt>
      <trkpt lat="45.06167" lon="5.9146">
        <ele>1824.377</ele>
        <time>2016-08-14T14:07:33Z</time>
      </trkpt>
      <trkpt lat="45.06167" lon="5.91464">
        <ele>1824.53</ele>
        <time>2016-08-14T14:07:35Z</time>
      </trkpt>
      <trkpt lat="45.06167" lon="5.91469">
        <ele>1824.024</ele>
        <time>2016-08-14T14:07:41Z</time>
      </trkpt>
      <trkpt lat="45.06166" lon="5.91478">
        <ele>1823.275</ele>
        <time>2016-08-14T14:07:46Z</time>
      </trkpt>
      <trkpt lat="45.06162" lon="5.91489">
        <ele>1823.159</ele>
        <time>2016-08-14T14:07:54Z</time>
      </trkpt>
      <trkpt lat="45.06159" lon="5.91495">
        <ele>1823.312</ele>
        <time>2016-08-14T14:07:59Z</time>
      </trkpt>
      <trkpt lat="45.06157" lon="5.915">
        <ele>1823.334</ele>
        <time>2016-08-14T14:08:02Z</time>
      </trkpt>
      <trkpt lat="45.06152" lon="5.91508">
        <ele>1822.769</ele>
        <time>2016-08-14T14:08:08Z</time>
      </trkpt>
      <trkpt lat="45.06144" lon="5.91524">
        <ele>1821.008</ele>
        <time>2016-08-14T14:08:19Z</time>
      </trkpt>
      <trkpt lat="45.06145" lon="5.91537">
        <ele>1820.75</ele>
        <time>2016-08-14T14:08:25Z</time>
      </trkpt>
      <trkpt lat="45.06145" lon="5.9154">
        <ele>1820.278</ele>
        <time>2016-08-14T14:08:27Z</time>
      </trkpt>
      <trkpt lat="45.0614" lon="5.91546">
        <ele>1819.646</ele>
        <time>2016-08-14T14:08:31Z</time>
      </trkpt>
      <trkpt lat="45.06131" lon="5.91562">
        <ele>1818.804</ele>
        <time>2016-08-14T14:08:43Z</time>
      </trkpt>
      <trkpt lat="45.06126" lon="5.91571">
        <ele>1819.03</ele>
        <time>2016-08-14T14:08:49Z</time>
      </trkpt>
      <trkpt lat="45.06125" lon="5.91576">
        <ele>1818.361</ele>
        <time>2016-08-14T14:08:52Z</time>
      </trkpt>
      <trkpt lat="45.06121" lon="5.91593">
        <ele>1818.62</ele>
        <time>2016-08-14T14:09:06Z</time>
      </trkpt>
      <trkpt lat="45.06116" lon="5.9161">
        <ele>1819.759</ele>
        <time>2016-08-14T14:09:20Z</time>
      </trkpt>
      <trkpt lat="45.06114" lon="5.91626">
        <ele>1820.458</ele>
        <time>2016-08-14T14:09:31Z</time>
      </trkpt>
      <trkpt lat="45.06114" lon="5.91629">
        <ele>1820.346</ele>
        <time>2016-08-14T14:09:39Z</time>
      </trkpt>
      <trkpt lat="45.06111" lon="5.91641">
        <ele>1821.049</ele>
        <time>2016-08-14T14:09:45Z</time>
      </trkpt>
      <trkpt lat="45.06106" lon="5.91646">
        <ele>1820.441</ele>
        <time>2016-08-14T14:09:50Z</time>
      </trkpt>
      <trkpt lat="45.06103" lon="5.9165">
        <ele>1820.983</ele>
        <time>2016-08-14T14:09:53Z</time>
      </trkpt>
      <trkpt lat="45.06104" lon="5.91663">
        <ele>1820.718</ele>
        <time>2016-08-14T14:10:00Z</time>
      </trkpt>
      <trkpt lat="45.06102" lon="5.91681">
        <ele>1821.513</ele>
        <time>2016-08-14T14:10:11Z</time>
      </trkpt>
      <trkpt lat="45.06102" lon="5.91686">
        <ele>1821.282</ele>
        <time>2016-08-14T14:10:14Z</time>
      </trkpt>
      <trkpt lat="45.061" lon="5.91691">
        <ele>1821.471</ele>
        <time>2016-08-14T14:10:18Z</time>
      </trkpt>
      <trkpt lat="45.06097" lon="5.91697">
        <ele>1821.114</ele>
        <time>2016-08-14T14:10:21Z</time>
      </trkpt>
      <trkpt lat="45.06095" lon="5.91706">
        <ele>1821.664</ele>
        <time>2016-08-14T14:10:26Z</time>
      </trkpt>
      <trkpt lat="45.06095" lon="5.91719">
        <ele>1821.628</ele>
        <time>2016-08-14T14:10:35Z</time>
      </trkpt>
      <trkpt lat="45.06092" lon="5.91725">
        <ele>1821.551</ele>
        <time>2016-08-14T14:10:39Z</time>
      </trkpt>
      <trkpt lat="45.06088" lon="5.91731">
        <ele>1821.144</ele>
        <time>2016-08-14T14:10:43Z</time>
      </trkpt>
      <trkpt lat="45.06086" lon="5.91738">
        <ele>1820.486</ele>
        <time>2016-08-14T14:10:48Z</time>
      </trkpt>
      <trkpt lat="45.06088" lon="5.91745">
        <ele>1820.42</ele>
        <time>2016-08-14T14:10:51Z</time>
      </trkpt>
      <trkpt lat="45.06087" lon="5.91754">
        <ele>1819.835</ele>
        <time>2016-08-14T14:10:56Z</time>
      </trkpt>
      <trkpt lat="45.06085" lon="5.91761">
        <ele>1820.313</ele>
        <time>2016-08-14T14:11:09Z</time>
      </trkpt>
      <trkpt lat="45.06067" lon="5.91775">
        <ele>1820.07</ele>
        <time>2016-08-14T14:11:24Z</time>
      </trkpt>
      <trkpt lat="45.06062" lon="5.91781">
        <ele>1819.572</ele>
        <time>2016-08-14T14:11:28Z</time>
      </trkpt>
      <trkpt lat="45.06054" lon="5.91791">
        <ele>1816.753</ele>
        <time>2016-08-14T14:11:39Z</time>
      </trkpt>
      <trkpt lat="45.06053" lon="5.91796">
        <ele>1816.498</ele>
        <time>2016-08-14T14:11:42Z</time>
      </trkpt>
      <trkpt lat="45.06051" lon="5.918">
        <ele>1815.709</ele>
        <time>2016-08-14T14:11:45Z</time>
      </trkpt>
      <trkpt lat="45.06047" lon="5.91804">
        <ele>1815.122</ele>
        <time>2016-08-14T14:11:50Z</time>
      </trkpt>
      <trkpt lat="45.06044" lon="5.91806">
        <ele>1814.551</ele>
        <time>2016-08-14T14:11:53Z</time>
      </trkpt>
      <trkpt lat="45.06039" lon="5.91815">
        <ele>1813.459</ele>
        <time>2016-08-14T14:11:59Z</time>
      </trkpt>
      <trkpt lat="45.06038" lon="5.91821">
        <ele>1813.062</ele>
        <time>2016-08-14T14:12:03Z</time>
      </trkpt>
      <trkpt lat="45.06036" lon="5.9183">
        <ele>1812.592</ele>
        <time>2016-08-14T14:12:09Z</time>
      </trkpt>
      <trkpt lat="45.06031" lon="5.91841">
        <ele>1812.441</ele>
        <time>2016-08-14T14:12:16Z</time>
      </trkpt>
      <trkpt lat="45.06029" lon="5.91843">
        <ele>1812.297</ele>
        <time>2016-08-14T14:12:18Z</time>
      </trkpt>
      <trkpt lat="45.06029" lon="5.9186">
        <ele>1810.502</ele>
        <time>2016-08-14T14:12:27Z</time>
      </trkpt>
      <trkpt lat="45.06027" lon="5.91866">
        <ele>1810.187</ele>
        <time>2016-08-14T14:12:31Z</time>
      </trkpt>
      <trkpt lat="45.06025" lon="5.91871">
        <ele>1809.489</ele>
        <time>2016-08-14T14:12:35Z</time>
      </trkpt>
      <trkpt lat="45.06022" lon="5.9188">
        <ele>1807.806</ele>
        <time>2016-08-14T14:12:42Z</time>
      </trkpt>
      <trkpt lat="45.06021" lon="5.91884">
        <ele>1807.531</ele>
        <time>2016-08-14T14:12:44Z</time>
      </trkpt>
      <trkpt lat="45.06016" lon="5.91891">
        <ele>1807.35</ele>
        <time>2016-08-14T14:12:49Z</time>
      </trkpt>
      <trkpt lat="45.06014" lon="5.91897">
        <ele>1806.742</ele>
        <time>2016-08-14T14:12:53Z</time>
      </trkpt>
      <trkpt lat="45.0601" lon="5.91903">
        <ele>1805.659</ele>
        <time>2016-08-14T14:12:58Z</time>
      </trkpt>
      <trkpt lat="45.06002" lon="5.91898">
        <ele>1803.852</ele>
        <time>2016-08-14T14:13:07Z</time>
      </trkpt>
      <trkpt lat="45.05994" lon="5.91896">
        <ele>1801.044</ele>
        <time>2016-08-14T14:13:21Z</time>
      </trkpt>
      <trkpt lat="45.05983" lon="5.91882">
        <ele>1797.764</ele>
        <time>2016-08-14T14:13:34Z</time>
      </trkpt>
      <trkpt lat="45.05983" lon="5.91878">
        <ele>1796.843</ele>
        <time>2016-08-14T14:14:16Z</time>
      </trkpt>
      <trkpt lat="45.05982" lon="5.91871">
        <ele>1796.817</ele>
        <time>2016-08-14T14:14:20Z</time>
      </trkpt>
      <trkpt lat="45.05982" lon="5.9185">
        <ele>1792.89</ele>
        <time>2016-08-14T14:14:34Z</time>
      </trkpt>
      <trkpt lat="45.05986" lon="5.91829">
        <ele>1789.504</ele>
        <time>2016-08-14T14:14:48Z</time>
      </trkpt>
      <trkpt lat="45.05986" lon="5.91826">
        <ele>1788.526</ele>
        <time>2016-08-14T14:14:50Z</time>
      </trkpt>
      <trkpt lat="45.05988" lon="5.91817">
        <ele>1787.334</ele>
        <time>2016-08-14T14:14:55Z</time>
      </trkpt>
      <trkpt lat="45.05989" lon="5.91805">
        <ele>1785.859</ele>
        <time>2016-08-14T14:15:03Z</time>
      </trkpt>
      <trkpt lat="45.05991" lon="5.91799">
        <ele>1784.786</ele>
        <time>2016-08-14T14:15:07Z</time>
      </trkpt>
      <trkpt lat="45.05991" lon="5.91789">
        <ele>1784.288</ele>
        <time>2016-08-14T14:15:13Z</time>
      </trkpt>
      <trkpt lat="45.05992" lon="5.9177">
        <ele>1780.599</ele>
        <time>2016-08-14T14:15:26Z</time>
      </trkpt>
      <trkpt lat="45.0599" lon="5.91762">
        <ele>1779.401</ele>
        <time>2016-08-14T14:15:32Z</time>
      </trkpt>
      <trkpt lat="45.05989" lon="5.91756">
        <ele>1777.745</ele>
        <time>2016-08-14T14:15:37Z</time>
      </trkpt>
      <trkpt lat="45.05989" lon="5.91751">
        <ele>1776.946</ele>
        <time>2016-08-14T14:15:40Z</time>
      </trkpt>
      <trkpt lat="45.05987" lon="5.91737">
        <ele>1774.607</ele>
        <time>2016-08-14T14:15:49Z</time>
      </trkpt>
      <trkpt lat="45.05988" lon="5.9173">
        <ele>1773.867</ele>
        <time>2016-08-14T14:15:54Z</time>
      </trkpt>
      <trkpt lat="45.05987" lon="5.91721">
        <ele>1772.944</ele>
        <time>2016-08-14T14:15:59Z</time>
      </trkpt>
      <trkpt lat="45.05987" lon="5.91716">
        <ele>1772.483</ele>
        <time>2016-08-14T14:16:02Z</time>
      </trkpt>
      <trkpt lat="45.05987" lon="5.91707">
        <ele>1771.507</ele>
        <time>2016-08-14T14:16:07Z</time>
      </trkpt>
      <trkpt lat="45.05987" lon="5.91704">
        <ele>1770.902</ele>
        <time>2016-08-14T14:16:09Z</time>
      </trkpt>
      <trkpt lat="45.05985" lon="5.91688">
        <ele>1768.52</ele>
        <time>2016-08-14T14:16:19Z</time>
      </trkpt>
      <trkpt lat="45.05979" lon="5.91672">
        <ele>1765.205</ele>
        <time>2016-08-14T14:16:31Z</time>
      </trkpt>
      <trkpt lat="45.0598" lon="5.91669">
        <ele>1764.511</ele>
        <time>2016-08-14T14:16:33Z</time>
      </trkpt>
      <trkpt lat="45.05983" lon="5.91663">
        <ele>1764.363</ele>
        <time>2016-08-14T14:16:36Z</time>
      </trkpt>
      <trkpt lat="45.05979" lon="5.9164">
        <ele>1760.864</ele>
        <time>2016-08-14T14:16:49Z</time>
      </trkpt>
      <trkpt lat="45.05978" lon="5.91631">
        <ele>1760.308</ele>
        <time>2016-08-14T14:16:54Z</time>
      </trkpt>
      <trkpt lat="45.05977" lon="5.91615">
        <ele>1759.996</ele>
        <time>2016-08-14T14:17:06Z</time>
      </trkpt>
      <trkpt lat="45.05977" lon="5.91605">
        <ele>1758.935</ele>
        <time>2016-08-14T14:17:12Z</time>
      </trkpt>
      <trkpt lat="45.05974" lon="5.91592">
        <ele>1758.327</ele>
        <time>2016-08-14T14:17:21Z</time>
      </trkpt>
      <trkpt lat="45.05974" lon="5.91583">
        <ele>1758.208</ele>
        <time>2016-08-14T14:17:25Z</time>
      </trkpt>
      <trkpt lat="45.05973" lon="5.91575">
        <ele>1757.916</ele>
        <time>2016-08-14T14:17:29Z</time>
      </trkpt>
      <trkpt lat="45.05972" lon="5.9156">
        <ele>1757.681</ele>
        <time>2016-08-14T14:17:37Z</time>
      </trkpt>
      <trkpt lat="45.05972" lon="5.91556">
        <ele>1757.818</ele>
        <time>2016-08-14T14:17:39Z</time>
      </trkpt>
      <trkpt lat="45.05973" lon="5.91548">
        <ele>1756.894</ele>
        <time>2016-08-14T14:17:44Z</time>
      </trkpt>
      <trkpt lat="45.05973" lon="5.91533">
        <ele>1755.379</ele>
        <time>2016-08-14T14:17:52Z</time>
      </trkpt>
      <trkpt lat="45.05972" lon="5.91526">
        <ele>1754.857</ele>
        <time>2016-08-14T14:17:56Z</time>
      </trkpt>
      <trkpt lat="45.05972" lon="5.91523">
        <ele>1755.189</ele>
        <time>2016-08-14T14:17:58Z</time>
      </trkpt>
      <trkpt lat="45.0597" lon="5.91515">
        <ele>1753.738</ele>
        <time>2016-08-14T14:18:03Z</time>
      </trkpt>
      <trkpt lat="45.05967" lon="5.9151">
        <ele>1753.685</ele>
        <time>2016-08-14T14:18:08Z</time>
      </trkpt>
      <trkpt lat="45.05962" lon="5.91493">
        <ele>1752.758</ele>
        <time>2016-08-14T14:18:20Z</time>
      </trkpt>
      <trkpt lat="45.0596" lon="5.91475">
        <ele>1751.815</ele>
        <time>2016-08-14T14:18:31Z</time>
      </trkpt>
      <trkpt lat="45.0596" lon="5.91472">
        <ele>1751.433</ele>
        <time>2016-08-14T14:18:33Z</time>
      </trkpt>
      <trkpt lat="45.05953" lon="5.91445">
        <ele>1750.546</ele>
        <time>2016-08-14T14:18:48Z</time>
      </trkpt>
      <trkpt lat="45.05954" lon="5.91438">
        <ele>1750.476</ele>
        <time>2016-08-14T14:18:53Z</time>
      </trkpt>
      <trkpt lat="45.05949" lon="5.91418">
        <ele>1750.472</ele>
        <time>2016-08-14T14:19:06Z</time>
      </trkpt>
      <trkpt lat="45.05954" lon="5.91418">
        <ele>1750.477</ele>
        <time>2016-08-14T14:19:07Z</time>
      </trkpt>
      <trkpt lat="45.05953" lon="5.91409">
        <ele>1750.116</ele>
        <time>2016-08-14T14:19:14Z</time>
      </trkpt>
      <trkpt lat="45.05951" lon="5.91401">
        <ele>1749.727</ele>
        <time>2016-08-14T14:19:20Z</time>
      </trkpt>
      <trkpt lat="45.05951" lon="5.91394">
        <ele>1749.652</ele>
        <time>2016-08-14T14:19:24Z</time>
      </trkpt>
      <trkpt lat="45.05951" lon="5.91384">
        <ele>1748.6</ele>
        <time>2016-08-14T14:19:31Z</time>
      </trkpt>
      <trkpt lat="45.05952" lon="5.91361">
        <ele>1746.708</ele>
        <time>2016-08-14T14:19:45Z</time>
      </trkpt>
      <trkpt lat="45.05951" lon="5.91349">
        <ele>1746.309</ele>
        <time>2016-08-14T14:19:52Z</time>
      </trkpt>
      <trkpt lat="45.05952" lon="5.91335">
        <ele>1745.467</ele>
        <time>2016-08-14T14:20:00Z</time>
      </trkpt>
      <trkpt lat="45.05946" lon="5.9133">
        <ele>1744.095</ele>
        <time>2016-08-14T14:20:11Z</time>
      </trkpt>
      <trkpt lat="45.05952" lon="5.91323">
        <ele>1744.516</ele>
        <time>2016-08-14T14:20:25Z</time>
      </trkpt>
      <trkpt lat="45.05953" lon="5.91315">
        <ele>1744.406</ele>
        <time>2016-08-14T14:20:29Z</time>
      </trkpt>
      <trkpt lat="45.05954" lon="5.91309">
        <ele>1743.021</ele>
        <time>2016-08-14T14:20:34Z</time>
      </trkpt>
      <trkpt lat="45.05955" lon="5.91302">
        <ele>1742.601</ele>
        <time>2016-08-14T14:20:38Z</time>
      </trkpt>
      <trkpt lat="45.05958" lon="5.91287">
        <ele>1742.368</ele>
        <time>2016-08-14T14:20:46Z</time>
      </trkpt>
      <trkpt lat="45.05959" lon="5.91279">
        <ele>1742.075</ele>
        <time>2016-08-14T14:20:51Z</time>
      </trkpt>
      <trkpt lat="45.05958" lon="5.91271">
        <ele>1740.992</ele>
        <time>2016-08-14T14:20:55Z</time>
      </trkpt>
      <trkpt lat="45.05961" lon="5.91263">
        <ele>1740.429</ele>
        <time>2016-08-14T14:21:00Z</time>
      </trkpt>
      <trkpt lat="45.05961" lon="5.91254">
        <ele>1739.325</ele>
        <time>2016-08-14T14:21:05Z</time>
      </trkpt>
      <trkpt lat="45.05962" lon="5.9125">
        <ele>1738.756</ele>
        <time>2016-08-14T14:21:08Z</time>
      </trkpt>
      <trkpt lat="45.0596" lon="5.91235">
        <ele>1737.76</ele>
        <time>2016-08-14T14:21:16Z</time>
      </trkpt>
      <trkpt lat="45.05961" lon="5.91231">
        <ele>1737.506</ele>
        <time>2016-08-14T14:21:20Z</time>
      </trkpt>
      <trkpt lat="45.05962" lon="5.91225">
        <ele>1737.68</ele>
        <time>2016-08-14T14:21:23Z</time>
      </trkpt>
      <trkpt lat="45.0596" lon="5.91218">
        <ele>1737.038</ele>
        <time>2016-08-14T14:21:29Z</time>
      </trkpt>
      <trkpt lat="45.0596" lon="5.91215">
        <ele>1737.324</ele>
        <time>2016-08-14T14:21:31Z</time>
      </trkpt>
      <trkpt lat="45.05962" lon="5.91207">
        <ele>1737.079</ele>
        <time>2016-08-14T14:21:38Z</time>
      </trkpt>
      <trkpt lat="45.05957" lon="5.91196">
        <ele>1736.845</ele>
        <time>2016-08-14T14:21:45Z</time>
      </trkpt>
      <trkpt lat="45.05952" lon="5.91184">
        <ele>1736.902</ele>
        <time>2016-08-14T14:21:56Z</time>
      </trkpt>
      <trkpt lat="45.0595" lon="5.91181">
        <ele>1737.114</ele>
        <time>2016-08-14T14:21:59Z</time>
      </trkpt>
      <trkpt lat="45.05949" lon="5.91176">
        <ele>1736.753</ele>
        <time>2016-08-14T14:22:05Z</time>
      </trkpt>
      <trkpt lat="45.05935" lon="5.91152">
        <ele>1734.756</ele>
        <time>2016-08-14T14:22:23Z</time>
      </trkpt>
      <trkpt lat="45.05932" lon="5.91144">
        <ele>1734.529</ele>
        <time>2016-08-14T14:22:28Z</time>
      </trkpt>
      <trkpt lat="45.0592" lon="5.91131">
        <ele>1733.493</ele>
        <time>2016-08-14T14:22:41Z</time>
      </trkpt>
      <trkpt lat="45.05917" lon="5.91124">
        <ele>1732.666</ele>
        <time>2016-08-14T14:22:46Z</time>
      </trkpt>
      <trkpt lat="45.05908" lon="5.91116">
        <ele>1731.363</ele>
        <time>2016-08-14T14:22:57Z</time>
      </trkpt>
      <trkpt lat="45.05901" lon="5.91098">
        <ele>1730.348</ele>
        <time>2016-08-14T14:23:11Z</time>
      </trkpt>
      <trkpt lat="45.05896" lon="5.91085">
        <ele>1729.672</ele>
        <time>2016-08-14T14:23:20Z</time>
      </trkpt>
      <trkpt lat="45.05895" lon="5.91081">
        <ele>1729.315</ele>
        <time>2016-08-14T14:23:23Z</time>
      </trkpt>
      <trkpt lat="45.05894" lon="5.91078">
        <ele>1729.265</ele>
        <time>2016-08-14T14:23:25Z</time>
      </trkpt>
      <trkpt lat="45.05891" lon="5.91059">
        <ele>1728.049</ele>
        <time>2016-08-14T14:23:36Z</time>
      </trkpt>
      <trkpt lat="45.05892" lon="5.91055">
        <ele>1727.83</ele>
        <time>2016-08-14T14:23:39Z</time>
      </trkpt>
      <trkpt lat="45.05891" lon="5.91044">
        <ele>1726.953</ele>
        <time>2016-08-14T14:23:46Z</time>
      </trkpt>
      <trkpt lat="45.05896" lon="5.91031">
        <ele>1725.758</ele>
        <time>2016-08-14T14:23:56Z</time>
      </trkpt>
      <trkpt lat="45.059" lon="5.91025">
        <ele>1725.322</ele>
        <time>2016-08-14T14:24:00Z</time>
      </trkpt>
      <trkpt lat="45.05901" lon="5.91021">
        <ele>1725.063</ele>
        <time>2016-08-14T14:24:03Z</time>
      </trkpt>
      <trkpt lat="45.05902" lon="5.91016">
        <ele>1724.813</ele>
        <time>2016-08-14T14:24:07Z</time>
      </trkpt>
      <trkpt lat="45.05899" lon="5.91005">
        <ele>1724.224</ele>
        <time>2016-08-14T14:24:13Z</time>
      </trkpt>
      <trkpt lat="45.0588" lon="5.90995">
        <ele>1723.113</ele>
        <time>2016-08-14T14:24:25Z</time>
      </trkpt>
      <trkpt lat="45.05864" lon="5.90986">
        <ele>1721.528</ele>
        <time>2016-08-14T14:24:39Z</time>
      </trkpt>
      <trkpt lat="45.0586" lon="5.90983">
        <ele>1721.21</ele>
        <time>2016-08-14T14:24:48Z</time>
      </trkpt>
      <trkpt lat="45.05855" lon="5.9098">
        <ele>1720.428</ele>
        <time>2016-08-14T14:24:51Z</time>
      </trkpt>
      <trkpt lat="45.05849" lon="5.90973">
        <ele>1719.433</ele>
        <time>2016-08-14T14:25:00Z</time>
      </trkpt>
      <trkpt lat="45.05843" lon="5.90964">
        <ele>1719.036</ele>
        <time>2016-08-14T14:25:09Z</time>
      </trkpt>
      <trkpt lat="45.05837" lon="5.90963">
        <ele>1718.177</ele>
        <time>2016-08-14T14:25:15Z</time>
      </trkpt>
      <trkpt lat="45.05837" lon="5.90948">
        <ele>1717.454</ele>
        <time>2016-08-14T14:25:22Z</time>
      </trkpt>
      <trkpt lat="45.05836" lon="5.90942">
        <ele>1717.849</ele>
        <time>2016-08-14T14:25:25Z</time>
      </trkpt>
      <trkpt lat="45.05828" lon="5.90925">
        <ele>1716.883</ele>
        <time>2016-08-14T14:25:37Z</time>
      </trkpt>
      <trkpt lat="45.05823" lon="5.90913">
        <ele>1716.613</ele>
        <time>2016-08-14T14:25:57Z</time>
      </trkpt>
      <trkpt lat="45.0582" lon="5.90902">
        <ele>1716.382</ele>
        <time>2016-08-14T14:26:03Z</time>
      </trkpt>
      <trkpt lat="45.05807" lon="5.90889">
        <ele>1715.368</ele>
        <time>2016-08-14T14:26:15Z</time>
      </trkpt>
      <trkpt lat="45.05805" lon="5.90883">
        <ele>1714.918</ele>
        <time>2016-08-14T14:26:19Z</time>
      </trkpt>
      <trkpt lat="45.05791" lon="5.90873">
        <ele>1713.713</ele>
        <time>2016-08-14T14:26:34Z</time>
      </trkpt>
      <trkpt lat="45.05779" lon="5.90873">
        <ele>1712.457</ele>
        <time>2016-08-14T14:26:42Z</time>
      </trkpt>
      <trkpt lat="45.05769" lon="5.9085">
        <ele>1711.694</ele>
        <time>2016-08-14T14:26:58Z</time>
      </trkpt>
      <trkpt lat="45.05767" lon="5.90848">
        <ele>1711.692</ele>
        <time>2016-08-14T14:26:59Z</time>
      </trkpt>
      <trkpt lat="45.05766" lon="5.90844">
        <ele>1711.764</ele>
        <time>2016-08-14T14:27:03Z</time>
      </trkpt>
      <trkpt lat="45.05765" lon="5.90838">
        <ele>1711.541</ele>
        <time>2016-08-14T14:27:07Z</time>
      </trkpt>
      <trkpt lat="45.05761" lon="5.90834">
        <ele>1711.48</ele>
        <time>2016-08-14T14:27:11Z</time>
      </trkpt>
      <trkpt lat="45.05754" lon="5.9082">
        <ele>1710.252</ele>
        <time>2016-08-14T14:27:22Z</time>
      </trkpt>
      <trkpt lat="45.05749" lon="5.90801">
        <ele>1709.196</ele>
        <time>2016-08-14T14:27:32Z</time>
      </trkpt>
      <trkpt lat="45.05736" lon="5.90783">
        <ele>1707.815</ele>
        <time>2016-08-14T14:27:49Z</time>
      </trkpt>
      <trkpt lat="45.05731" lon="5.90778">
        <ele>1707.67</ele>
        <time>2016-08-14T14:27:54Z</time>
      </trkpt>
      <trkpt lat="45.05726" lon="5.90771">
        <ele>1707.208</ele>
        <time>2016-08-14T14:27:59Z</time>
      </trkpt>
      <trkpt lat="45.0572" lon="5.90763">
        <ele>1706.594</ele>
        <time>2016-08-14T14:28:05Z</time>
      </trkpt>
      <trkpt lat="45.05718" lon="5.90757">
        <ele>1706.392</ele>
        <time>2016-08-14T14:28:09Z</time>
      </trkpt>
      <trkpt lat="45.05715" lon="5.90753">
        <ele>1706.098</ele>
        <time>2016-08-14T14:28:13Z</time>
      </trkpt>
      <trkpt lat="45.05714" lon="5.90744">
        <ele>1705.96</ele>
        <time>2016-08-14T14:28:17Z</time>
      </trkpt>
      <trkpt lat="45.05707" lon="5.90737">
        <ele>1705.816</ele>
        <time>2016-08-14T14:28:26Z</time>
      </trkpt>
      <trkpt lat="45.057" lon="5.90733">
        <ele>1705.613</ele>
        <time>2016-08-14T14:28:31Z</time>
      </trkpt>
      <trkpt lat="45.05696" lon="5.90733">
        <ele>1705.894</ele>
        <time>2016-08-14T14:28:34Z</time>
      </trkpt>
      <trkpt lat="45.05692" lon="5.90732">
        <ele>1705.028</ele>
        <time>2016-08-14T14:28:39Z</time>
      </trkpt>
      <trkpt lat="45.05689" lon="5.90733">
        <ele>1705.481</ele>
        <time>2016-08-14T14:28:41Z</time>
      </trkpt>
      <trkpt lat="45.05686" lon="5.90727">
        <ele>1704.592</ele>
        <time>2016-08-14T14:28:47Z</time>
      </trkpt>
      <trkpt lat="45.05682" lon="5.90717">
        <ele>1704.519</ele>
        <time>2016-08-14T14:29:05Z</time>
      </trkpt>
      <trkpt lat="45.05678" lon="5.90714">
        <ele>1704.899</ele>
        <time>2016-08-14T14:29:21Z</time>
      </trkpt>
      <trkpt lat="45.05675" lon="5.90712">
        <ele>1704.551</ele>
        <time>2016-08-14T14:29:24Z</time>
      </trkpt>
      <trkpt lat="45.0567" lon="5.90705">
        <ele>1704.436</ele>
        <time>2016-08-14T14:29:30Z</time>
      </trkpt>
      <trkpt lat="45.05665" lon="5.90698">
        <ele>1704.021</ele>
        <time>2016-08-14T14:29:37Z</time>
      </trkpt>
      <trkpt lat="45.05658" lon="5.90695">
        <ele>1702.941</ele>
        <time>2016-08-14T14:29:42Z</time>
      </trkpt>
      <trkpt lat="45.05648" lon="5.90697">
        <ele>1701.701</ele>
        <time>2016-08-14T14:29:51Z</time>
      </trkpt>
      <trkpt lat="45.05642" lon="5.90705">
        <ele>1700.075</ele>
        <time>2016-08-14T14:30:00Z</time>
      </trkpt>
      <trkpt lat="45.05641" lon="5.90713">
        <ele>1699.51</ele>
        <time>2016-08-14T14:30:05Z</time>
      </trkpt>
      <trkpt lat="45.05637" lon="5.90725">
        <ele>1698.952</ele>
        <time>2016-08-14T14:30:23Z</time>
      </trkpt>
      <trkpt lat="45.05621" lon="5.90747">
        <ele>1695.952</ele>
        <time>2016-08-14T14:30:42Z</time>
      </trkpt>
      <trkpt lat="45.05617" lon="5.90755">
        <ele>1695.572</ele>
        <time>2016-08-14T14:30:47Z</time>
      </trkpt>
      <trkpt lat="45.05611" lon="5.90767">
        <ele>1695.421</ele>
        <time>2016-08-14T14:30:56Z</time>
      </trkpt>
      <trkpt lat="45.05601" lon="5.90779">
        <ele>1694.538</ele>
        <time>2016-08-14T14:31:08Z</time>
      </trkpt>
      <trkpt lat="45.05584" lon="5.90792">
        <ele>1693.081</ele>
        <time>2016-08-14T14:31:24Z</time>
      </trkpt>
      <trkpt lat="45.05563" lon="5.90803">
        <ele>1691.418</ele>
        <time>2016-08-14T14:31:42Z</time>
      </trkpt>
      <trkpt lat="45.05553" lon="5.90808">
        <ele>1690.489</ele>
        <time>2016-08-14T14:31:52Z</time>
      </trkpt>
      <trkpt lat="45.05545" lon="5.90815">
        <ele>1690.283</ele>
        <time>2016-08-14T14:32:01Z</time>
      </trkpt>
      <trkpt lat="45.05538" lon="5.90819">
        <ele>1689.878</ele>
        <time>2016-08-14T14:32:07Z</time>
      </trkpt>
      <trkpt lat="45.05521" lon="5.90829">
        <ele>1686.916</ele>
        <time>2016-08-14T14:32:23Z</time>
      </trkpt>
      <trkpt lat="45.05501" lon="5.90836">
        <ele>1686.245</ele>
        <time>2016-08-14T14:32:41Z</time>
      </trkpt>
      <trkpt lat="45.05482" lon="5.90837">
        <ele>1684.109</ele>
        <time>2016-08-14T14:33:00Z</time>
      </trkpt>
      <trkpt lat="45.05467" lon="5.90816">
        <ele>1682.97</ele>
        <time>2016-08-14T14:33:20Z</time>
      </trkpt>
      <trkpt lat="45.05463" lon="5.90812">
        <ele>1682.109</ele>
        <time>2016-08-14T14:33:25Z</time>
      </trkpt>
      <trkpt lat="45.05452" lon="5.90797">
        <ele>1679.46</ele>
        <time>2016-08-14T14:33:40Z</time>
      </trkpt>
      <trkpt lat="45.0545" lon="5.90794">
        <ele>1678.54</ele>
        <time>2016-08-14T14:33:42Z</time>
      </trkpt>
      <trkpt lat="45.05447" lon="5.9079">
        <ele>1677.729</ele>
        <time>2016-08-14T14:33:46Z</time>
      </trkpt>
      <trkpt lat="45.05444" lon="5.90787">
        <ele>1677.584</ele>
        <time>2016-08-14T14:33:50Z</time>
      </trkpt>
      <trkpt lat="45.05442" lon="5.90777">
        <ele>1676.876</ele>
        <time>2016-08-14T14:33:55Z</time>
      </trkpt>
      <trkpt lat="45.0544" lon="5.90774">
        <ele>1676.274</ele>
        <time>2016-08-14T14:33:57Z</time>
      </trkpt>
      <trkpt lat="45.05429" lon="5.90737">
        <ele>1673.93</ele>
        <time>2016-08-14T14:34:20Z</time>
      </trkpt>
      <trkpt lat="45.05418" lon="5.90698">
        <ele>1671.379</ele>
        <time>2016-08-14T14:34:46Z</time>
      </trkpt>
      <trkpt lat="45.05415" lon="5.90692">
        <ele>1670.782</ele>
        <time>2016-08-14T14:34:51Z</time>
      </trkpt>
      <trkpt lat="45.05412" lon="5.90684">
        <ele>1671.263</ele>
        <time>2016-08-14T14:34:56Z</time>
      </trkpt>
      <trkpt lat="45.0541" lon="5.9068">
        <ele>1670.951</ele>
        <time>2016-08-14T14:35:00Z</time>
      </trkpt>
      <trkpt lat="45.05402" lon="5.9067">
        <ele>1670.521</ele>
        <time>2016-08-14T14:35:10Z</time>
      </trkpt>
      <trkpt lat="45.05395" lon="5.90659">
        <ele>1668.708</ele>
        <time>2016-08-14T14:35:19Z</time>
      </trkpt>
      <trkpt lat="45.05392" lon="5.90654">
        <ele>1668.184</ele>
        <time>2016-08-14T14:35:24Z</time>
      </trkpt>
      <trkpt lat="45.05388" lon="5.90649">
        <ele>1667.275</ele>
        <time>2016-08-14T14:35:28Z</time>
      </trkpt>
      <trkpt lat="45.05381" lon="5.90639">
        <ele>1666.458</ele>
        <time>2016-08-14T14:35:44Z</time>
      </trkpt>
      <trkpt lat="45.05379" lon="5.90628">
        <ele>1666.317</ele>
        <time>2016-08-14T14:35:53Z</time>
      </trkpt>
      <trkpt lat="45.0538" lon="5.90625">
        <ele>1666.343</ele>
        <time>2016-08-14T14:35:55Z</time>
      </trkpt>
      <trkpt lat="45.05382" lon="5.90597">
        <ele>1664.65</ele>
        <time>2016-08-14T14:36:11Z</time>
      </trkpt>
      <trkpt lat="45.05381" lon="5.9059">
        <ele>1663.734</ele>
        <time>2016-08-14T14:36:15Z</time>
      </trkpt>
      <trkpt lat="45.05383" lon="5.90586">
        <ele>1663.669</ele>
        <time>2016-08-14T14:36:18Z</time>
      </trkpt>
      <trkpt lat="45.0538" lon="5.90558">
        <ele>1662.062</ele>
        <time>2016-08-14T14:36:37Z</time>
      </trkpt>
      <trkpt lat="45.05375" lon="5.90537">
        <ele>1660.244</ele>
        <time>2016-08-14T14:36:54Z</time>
      </trkpt>
      <trkpt lat="45.05372" lon="5.90528">
        <ele>1659.715</ele>
        <time>2016-08-14T14:37:01Z</time>
      </trkpt>
      <trkpt lat="45.05366" lon="5.90497">
        <ele>1658.595</ele>
        <time>2016-08-14T14:37:20Z</time>
      </trkpt>
      <trkpt lat="45.05362" lon="5.90488">
        <ele>1658.496</ele>
        <time>2016-08-14T14:37:29Z</time>
      </trkpt>
      <trkpt lat="45.05354" lon="5.90462">
        <ele>1657.797</ele>
        <time>2016-08-14T14:37:46Z</time>
      </trkpt>
      <trkpt lat="45.05351" lon="5.90429">
        <ele>1656.044</ele>
        <time>2016-08-14T14:38:08Z</time>
      </trkpt>
      <trkpt lat="45.05347" lon="5.90396">
        <ele>1653.957</ele>
        <time>2016-08-14T14:38:29Z</time>
      </trkpt>
      <trkpt lat="45.05346" lon="5.90391">
        <ele>1653.518</ele>
        <time>2016-08-14T14:38:33Z</time>
      </trkpt>
      <trkpt lat="45.05344" lon="5.90387">
        <ele>1653.711</ele>
        <time>2016-08-14T14:38:37Z</time>
      </trkpt>
      <trkpt lat="45.05337" lon="5.90356">
        <ele>1652.814</ele>
        <time>2016-08-14T14:38:57Z</time>
      </trkpt>
      <trkpt lat="45.05333" lon="5.90334">
        <ele>1652.124</ele>
        <time>2016-08-14T14:39:09Z</time>
      </trkpt>
      <trkpt lat="45.05329" lon="5.90329">
        <ele>1651.463</ele>
        <time>2016-08-14T14:39:13Z</time>
      </trkpt>
      <trkpt lat="45.05327" lon="5.90316">
        <ele>1650.703</ele>
        <time>2016-08-14T14:39:21Z</time>
      </trkpt>
      <trkpt lat="45.05327" lon="5.90309">
        <ele>1650.619</ele>
        <time>2016-08-14T14:39:25Z</time>
      </trkpt>
      <trkpt lat="45.05328" lon="5.90298">
        <ele>1651.097</ele>
        <time>2016-08-14T14:39:32Z</time>
      </trkpt>
      <trkpt lat="45.05325" lon="5.90264">
        <ele>1650.513</ele>
        <time>2016-08-14T14:39:57Z</time>
      </trkpt>
      <trkpt lat="45.05321" lon="5.90241">
        <ele>1649.533</ele>
        <time>2016-08-14T14:40:24Z</time>
      </trkpt>
      <trkpt lat="45.05316" lon="5.90213">
        <ele>1647.985</ele>
        <time>2016-08-14T14:40:42Z</time>
      </trkpt>
      <trkpt lat="45.05315" lon="5.90181">
        <ele>1646.746</ele>
        <time>2016-08-14T14:41:02Z</time>
      </trkpt>
      <trkpt lat="45.05316" lon="5.9017">
        <ele>1648.301</ele>
        <time>2016-08-14T14:41:13Z</time>
      </trkpt>
      <trkpt lat="45.05314" lon="5.90147">
        <ele>1648.755</ele>
        <time>2016-08-14T14:41:30Z</time>
      </trkpt>
      <trkpt lat="45.05311" lon="5.90129">
        <ele>1648.94</ele>
        <time>2016-08-14T14:41:43Z</time>
      </trkpt>
      <trkpt lat="45.05309" lon="5.90125">
        <ele>1648.881</ele>
        <time>2016-08-14T14:41:46Z</time>
      </trkpt>
      <trkpt lat="45.05309" lon="5.90115">
        <ele>1648.878</ele>
        <time>2016-08-14T14:41:53Z</time>
      </trkpt>
      <trkpt lat="45.053" lon="5.90083">
        <ele>1649.996</ele>
        <time>2016-08-14T14:42:15Z</time>
      </trkpt>
      <trkpt lat="45.05304" lon="5.90061">
        <ele>1650.884</ele>
        <time>2016-08-14T14:42:33Z</time>
      </trkpt>
      <trkpt lat="45.05314" lon="5.90045">
        <ele>1653.154</ele>
        <time>2016-08-14T14:42:51Z</time>
      </trkpt>
      <trkpt lat="45.05314" lon="5.90022">
        <ele>1655.106</ele>
        <time>2016-08-14T14:43:07Z</time>
      </trkpt>
      <trkpt lat="45.05322" lon="5.9">
        <ele>1657.284</ele>
        <time>2016-08-14T14:43:27Z</time>
      </trkpt>
      <trkpt lat="45.05323" lon="5.89969">
        <ele>1658.24</ele>
        <time>2016-08-14T14:44:10Z</time>
      </trkpt>
      <trkpt lat="45.05319" lon="5.89942">
        <ele>1659.097</ele>
        <time>2016-08-14T14:44:29Z</time>
      </trkpt>
      <trkpt lat="45.05312" lon="5.89907">
        <ele>1660.453</ele>
        <time>2016-08-14T14:44:55Z</time>
      </trkpt>
    </trkseg>
  </trk>
</gpx>